<?xml version="1.0" encoding="UTF-8" standalone="no" ?>
<gpx xmlns="http://www.topografix.com/GPX/1/1" xmlns:xsi="http://www.w3.org/2001/XMLSchema-instance" xsi:schemaLocation="http://www.topografix.com/GPX/1/1 http://www.topografix.com/GPX/1/1/gpx.xsd" version="1.1" creator="VisuGPX - https://www.visugpx.com">
  <metadata>
    <name>Balcon de Dabo 2012</name>
    <desc><![CDATA[Rando des balcons de Dabo par Antoine DIDIERJEAN]]></desc>
  </metadata>
  <trk>
    <name><![CDATA[GPS-ADi2012/08/15_08:44]]></name>
    <trkseg>
      <trkpt lat="48.67288" lon="7.19572">
        <ele>199.345764</ele>
        <time>2012-08-15T06:44:59Z</time>
      </trkpt>
      <trkpt lat="48.6727" lon="7.19602">
        <ele>252.220764</ele>
        <time>2012-08-15T06:45:02Z</time>
      </trkpt>
      <trkpt lat="48.67306" lon="7.19498">
        <ele>269.949341</ele>
        <time>2012-08-15T06:45:03Z</time>
      </trkpt>
      <trkpt lat="48.67297" lon="7.19525">
        <ele>282.129028</ele>
        <time>2012-08-15T06:45:58Z</time>
      </trkpt>
      <trkpt lat="48.67318" lon="7.19515">
        <ele>291.105591</ele>
        <time>2012-08-15T06:46:26Z</time>
      </trkpt>
      <trkpt lat="48.67358" lon="7.19483">
        <ele>284.933716</ele>
        <time>2012-08-15T06:46:50Z</time>
      </trkpt>
      <trkpt lat="48.67381" lon="7.19476">
        <ele>286.886841</ele>
        <time>2012-08-15T06:46:58Z</time>
      </trkpt>
      <trkpt lat="48.67426" lon="7.19484">
        <ele>292.363403</ele>
        <time>2012-08-15T06:47:16Z</time>
      </trkpt>
      <trkpt lat="48.67448" lon="7.19543">
        <ele>279.316528</ele>
        <time>2012-08-15T06:47:26Z</time>
      </trkpt>
      <trkpt lat="48.67455" lon="7.19617">
        <ele>273.152466</ele>
        <time>2012-08-15T06:47:33Z</time>
      </trkpt>
      <trkpt lat="48.67456" lon="7.19652">
        <ele>273.629028</ele>
        <time>2012-08-15T06:47:39Z</time>
      </trkpt>
      <trkpt lat="48.67437" lon="7.19719">
        <ele>280.246216</ele>
        <time>2012-08-15T06:47:56Z</time>
      </trkpt>
      <trkpt lat="48.6744" lon="7.19752">
        <ele>286.629028</ele>
        <time>2012-08-15T06:48:11Z</time>
      </trkpt>
      <trkpt lat="48.67477" lon="7.19792">
        <ele>290.347778</ele>
        <time>2012-08-15T06:48:57Z</time>
      </trkpt>
      <trkpt lat="48.6754" lon="7.1984">
        <ele>293.738403</ele>
        <time>2012-08-15T06:49:18Z</time>
      </trkpt>
      <trkpt lat="48.67405" lon="7.19756">
        <ele>307.082153</ele>
        <time>2012-08-15T06:50:19Z</time>
      </trkpt>
      <trkpt lat="48.67383" lon="7.19747">
        <ele>308.394653</ele>
        <time>2012-08-15T06:50:28Z</time>
      </trkpt>
      <trkpt lat="48.6734" lon="7.19772">
        <ele>314.386841</ele>
        <time>2012-08-15T06:51:01Z</time>
      </trkpt>
      <trkpt lat="48.67315" lon="7.19765">
        <ele>316.129028</ele>
        <time>2012-08-15T06:51:09Z</time>
      </trkpt>
      <trkpt lat="48.67201" lon="7.19698">
        <ele>322.027466</ele>
        <time>2012-08-15T06:51:39Z</time>
      </trkpt>
      <trkpt lat="48.67112" lon="7.19695">
        <ele>327.457153</ele>
        <time>2012-08-15T06:52:01Z</time>
      </trkpt>
      <trkpt lat="48.67082" lon="7.19682">
        <ele>328.285278</ele>
        <time>2012-08-15T06:52:07Z</time>
      </trkpt>
      <trkpt lat="48.67013" lon="7.19685">
        <ele>340.582153</ele>
        <time>2012-08-15T06:52:32Z</time>
      </trkpt>
      <trkpt lat="48.66944" lon="7.19722">
        <ele>350.964966</ele>
        <time>2012-08-15T06:52:58Z</time>
      </trkpt>
      <trkpt lat="48.66869" lon="7.19733">
        <ele>358.136841</ele>
        <time>2012-08-15T06:53:17Z</time>
      </trkpt>
      <trkpt lat="48.66775" lon="7.19716">
        <ele>363.402466</ele>
        <time>2012-08-15T06:53:42Z</time>
      </trkpt>
      <trkpt lat="48.66757" lon="7.19696">
        <ele>365.660278</ele>
        <time>2012-08-15T06:53:48Z</time>
      </trkpt>
      <trkpt lat="48.66686" lon="7.19666">
        <ele>362.652466</ele>
        <time>2012-08-15T06:53:59Z</time>
      </trkpt>
      <trkpt lat="48.66598" lon="7.19604">
        <ele>361.597778</ele>
        <time>2012-08-15T06:54:37Z</time>
      </trkpt>
      <trkpt lat="48.66478" lon="7.19587">
        <ele>354.504028</ele>
        <time>2012-08-15T06:55:13Z</time>
      </trkpt>
      <trkpt lat="48.66428" lon="7.19596">
        <ele>353.816528</ele>
        <time>2012-08-15T06:55:27Z</time>
      </trkpt>
      <trkpt lat="48.66332" lon="7.19636">
        <ele>356.855591</ele>
        <time>2012-08-15T06:55:48Z</time>
      </trkpt>
      <trkpt lat="48.66309" lon="7.19651">
        <ele>357.910278</ele>
        <time>2012-08-15T06:55:56Z</time>
      </trkpt>
      <trkpt lat="48.66286" lon="7.19675">
        <ele>359.464966</ele>
        <time>2012-08-15T06:56:03Z</time>
      </trkpt>
      <trkpt lat="48.6627" lon="7.19705">
        <ele>359.363403</ele>
        <time>2012-08-15T06:56:10Z</time>
      </trkpt>
      <trkpt lat="48.66228" lon="7.19739">
        <ele>360.121216</ele>
        <time>2012-08-15T06:56:21Z</time>
      </trkpt>
      <trkpt lat="48.66218" lon="7.19812">
        <ele>364.699341</ele>
        <time>2012-08-15T06:56:33Z</time>
      </trkpt>
      <trkpt lat="48.66197" lon="7.1988">
        <ele>367.832153</ele>
        <time>2012-08-15T06:56:48Z</time>
      </trkpt>
      <trkpt lat="48.66185" lon="7.19909">
        <ele>369.550903</ele>
        <time>2012-08-15T06:56:57Z</time>
      </trkpt>
      <trkpt lat="48.66161" lon="7.19915">
        <ele>368.988403</ele>
        <time>2012-08-15T06:57:03Z</time>
      </trkpt>
      <trkpt lat="48.6619" lon="7.19939">
        <ele>354.597778</ele>
        <time>2012-08-15T06:57:06Z</time>
      </trkpt>
      <trkpt lat="48.66178" lon="7.19965">
        <ele>345.050903</ele>
        <time>2012-08-15T06:57:18Z</time>
      </trkpt>
      <trkpt lat="48.66135" lon="7.19994">
        <ele>333.839966</ele>
        <time>2012-08-15T06:57:33Z</time>
      </trkpt>
      <trkpt lat="48.66111" lon="7.19992">
        <ele>328.816528</ele>
        <time>2012-08-15T06:57:43Z</time>
      </trkpt>
      <trkpt lat="48.66063" lon="7.19967">
        <ele>330.214966</ele>
        <time>2012-08-15T06:57:58Z</time>
      </trkpt>
      <trkpt lat="48.66042" lon="7.19953">
        <ele>332.855591</ele>
        <time>2012-08-15T06:58:06Z</time>
      </trkpt>
      <trkpt lat="48.66002" lon="7.19909">
        <ele>335.886841</ele>
        <time>2012-08-15T06:58:21Z</time>
      </trkpt>
      <trkpt lat="48.65958" lon="7.19884">
        <ele>342.121216</ele>
        <time>2012-08-15T06:58:32Z</time>
      </trkpt>
      <trkpt lat="48.65941" lon="7.1986">
        <ele>346.230591</ele>
        <time>2012-08-15T06:58:39Z</time>
      </trkpt>
      <trkpt lat="48.65941" lon="7.19815">
        <ele>349.879028</ele>
        <time>2012-08-15T06:58:47Z</time>
      </trkpt>
      <trkpt lat="48.65924" lon="7.19786">
        <ele>347.004028</ele>
        <time>2012-08-15T06:59:00Z</time>
      </trkpt>
      <trkpt lat="48.65903" lon="7.19799">
        <ele>340.238403</ele>
        <time>2012-08-15T06:59:07Z</time>
      </trkpt>
      <trkpt lat="48.65886" lon="7.19825">
        <ele>338.300903</ele>
        <time>2012-08-15T06:59:15Z</time>
      </trkpt>
      <trkpt lat="48.65849" lon="7.19915">
        <ele>324.754028</ele>
        <time>2012-08-15T06:59:37Z</time>
      </trkpt>
      <trkpt lat="48.6583" lon="7.1998">
        <ele>327.199341</ele>
        <time>2012-08-15T06:59:54Z</time>
      </trkpt>
      <trkpt lat="48.658" lon="7.20043">
        <ele>316.355591</ele>
        <time>2012-08-15T07:00:06Z</time>
      </trkpt>
      <trkpt lat="48.65759" lon="7.20081">
        <ele>310.433716</ele>
        <time>2012-08-15T07:00:17Z</time>
      </trkpt>
      <trkpt lat="48.65736" lon="7.20084">
        <ele>309.574341</ele>
        <time>2012-08-15T07:00:23Z</time>
      </trkpt>
      <trkpt lat="48.6569" lon="7.20057">
        <ele>308.863403</ele>
        <time>2012-08-15T07:00:36Z</time>
      </trkpt>
      <trkpt lat="48.65663" lon="7.20114">
        <ele>300.308716</ele>
        <time>2012-08-15T07:00:53Z</time>
      </trkpt>
      <trkpt lat="48.65655" lon="7.2022">
        <ele>309.129028</ele>
        <time>2012-08-15T07:01:16Z</time>
      </trkpt>
      <trkpt lat="48.65657" lon="7.20292">
        <ele>308.550903</ele>
        <time>2012-08-15T07:01:51Z</time>
      </trkpt>
      <trkpt lat="48.65635" lon="7.20315">
        <ele>309.363403</ele>
        <time>2012-08-15T07:02:00Z</time>
      </trkpt>
      <trkpt lat="48.65567" lon="7.20351">
        <ele>310.113403</ele>
        <time>2012-08-15T07:02:33Z</time>
      </trkpt>
      <trkpt lat="48.65552" lon="7.20376">
        <ele>305.402466</ele>
        <time>2012-08-15T07:03:05Z</time>
      </trkpt>
      <trkpt lat="48.65507" lon="7.20374">
        <ele>312.418091</ele>
        <time>2012-08-15T07:04:11Z</time>
      </trkpt>
      <trkpt lat="48.65461" lon="7.20363">
        <ele>316.238403</ele>
        <time>2012-08-15T07:04:32Z</time>
      </trkpt>
      <trkpt lat="48.65418" lon="7.20341">
        <ele>321.574341</ele>
        <time>2012-08-15T07:04:45Z</time>
      </trkpt>
      <trkpt lat="48.65305" lon="7.20232">
        <ele>321.136841</ele>
        <time>2012-08-15T07:10:31Z</time>
      </trkpt>
      <trkpt lat="48.65281" lon="7.20228">
        <ele>324.035278</ele>
        <time>2012-08-15T07:10:40Z</time>
      </trkpt>
      <trkpt lat="48.65217" lon="7.20185">
        <ele>334.457153</ele>
        <time>2012-08-15T07:11:04Z</time>
      </trkpt>
      <trkpt lat="48.65191" lon="7.20187">
        <ele>336.597778</ele>
        <time>2012-08-15T07:11:10Z</time>
      </trkpt>
      <trkpt lat="48.65145" lon="7.20169">
        <ele>347.175903</ele>
        <time>2012-08-15T07:11:28Z</time>
      </trkpt>
      <trkpt lat="48.651" lon="7.20135">
        <ele>356.511841</ele>
        <time>2012-08-15T07:11:41Z</time>
      </trkpt>
      <trkpt lat="48.65062" lon="7.20095">
        <ele>364.207153</ele>
        <time>2012-08-15T07:11:56Z</time>
      </trkpt>
      <trkpt lat="48.64997" lon="7.20064">
        <ele>341.097778</ele>
        <time>2012-08-15T07:12:10Z</time>
      </trkpt>
      <trkpt lat="48.64996" lon="7.20099">
        <ele>336.207153</ele>
        <time>2012-08-15T07:13:11Z</time>
      </trkpt>
      <trkpt lat="48.65038" lon="7.2019">
        <ele>345.910278</ele>
        <time>2012-08-15T07:14:25Z</time>
      </trkpt>
      <trkpt lat="48.65094" lon="7.2025">
        <ele>367.207153</ele>
        <time>2012-08-15T07:15:33Z</time>
      </trkpt>
      <trkpt lat="48.65196" lon="7.20318">
        <ele>383.793091</ele>
        <time>2012-08-15T07:16:54Z</time>
      </trkpt>
      <trkpt lat="48.65258" lon="7.20415">
        <ele>379.668091</ele>
        <time>2012-08-15T07:18:53Z</time>
      </trkpt>
      <trkpt lat="48.65316" lon="7.20564">
        <ele>405.769653</ele>
        <time>2012-08-15T07:20:15Z</time>
      </trkpt>
      <trkpt lat="48.65346" lon="7.2066">
        <ele>415.464966</ele>
        <time>2012-08-15T07:20:54Z</time>
      </trkpt>
      <trkpt lat="48.65348" lon="7.20764">
        <ele>411.816528</ele>
        <time>2012-08-15T07:21:52Z</time>
      </trkpt>
      <trkpt lat="48.65328" lon="7.20827">
        <ele>411.871216</ele>
        <time>2012-08-15T07:22:28Z</time>
      </trkpt>
      <trkpt lat="48.65313" lon="7.20853">
        <ele>413.855591</ele>
        <time>2012-08-15T07:22:35Z</time>
      </trkpt>
      <trkpt lat="48.65281" lon="7.20947">
        <ele>419.129028</ele>
        <time>2012-08-15T07:23:05Z</time>
      </trkpt>
      <trkpt lat="48.6526" lon="7.2096">
        <ele>421.589966</ele>
        <time>2012-08-15T07:23:21Z</time>
      </trkpt>
      <trkpt lat="48.65235" lon="7.20908">
        <ele>406.800903</ele>
        <time>2012-08-15T07:23:54Z</time>
      </trkpt>
      <trkpt lat="48.65215" lon="7.21011">
        <ele>402.355591</ele>
        <time>2012-08-15T07:24:30Z</time>
      </trkpt>
      <trkpt lat="48.65193" lon="7.21073">
        <ele>405.082153</ele>
        <time>2012-08-15T07:24:50Z</time>
      </trkpt>
      <trkpt lat="48.65175" lon="7.21096">
        <ele>409.769653</ele>
        <time>2012-08-15T07:24:59Z</time>
      </trkpt>
      <trkpt lat="48.65134" lon="7.2113">
        <ele>416.699341</ele>
        <time>2012-08-15T07:25:18Z</time>
      </trkpt>
      <trkpt lat="48.65048" lon="7.21187">
        <ele>419.746216</ele>
        <time>2012-08-15T07:25:54Z</time>
      </trkpt>
      <trkpt lat="48.65015" lon="7.21363">
        <ele>421.082153</ele>
        <time>2012-08-15T07:26:41Z</time>
      </trkpt>
      <trkpt lat="48.64978" lon="7.21456">
        <ele>424.636841</ele>
        <time>2012-08-15T07:27:07Z</time>
      </trkpt>
      <trkpt lat="48.64943" lon="7.21503">
        <ele>421.238403</ele>
        <time>2012-08-15T07:27:23Z</time>
      </trkpt>
      <trkpt lat="48.64903" lon="7.21543">
        <ele>421.371216</ele>
        <time>2012-08-15T07:27:41Z</time>
      </trkpt>
      <trkpt lat="48.64856" lon="7.21548">
        <ele>430.316528</ele>
        <time>2012-08-15T07:28:03Z</time>
      </trkpt>
      <trkpt lat="48.64833" lon="7.21537">
        <ele>436.449341</ele>
        <time>2012-08-15T07:28:14Z</time>
      </trkpt>
      <trkpt lat="48.6481" lon="7.21534">
        <ele>443.339966</ele>
        <time>2012-08-15T07:28:25Z</time>
      </trkpt>
      <trkpt lat="48.64793" lon="7.21556">
        <ele>449.722778</ele>
        <time>2012-08-15T07:28:37Z</time>
      </trkpt>
      <trkpt lat="48.64781" lon="7.21587">
        <ele>445.754028</ele>
        <time>2012-08-15T07:28:49Z</time>
      </trkpt>
      <trkpt lat="48.64771" lon="7.21692">
        <ele>446.152466</ele>
        <time>2012-08-15T07:29:22Z</time>
      </trkpt>
      <trkpt lat="48.64743" lon="7.21789">
        <ele>447.613403</ele>
        <time>2012-08-15T07:29:58Z</time>
      </trkpt>
      <trkpt lat="48.64729" lon="7.21762">
        <ele>448.160278</ele>
        <time>2012-08-15T07:30:33Z</time>
      </trkpt>
      <trkpt lat="48.64737" lon="7.21693">
        <ele>445.714966</ele>
        <time>2012-08-15T07:30:52Z</time>
      </trkpt>
      <trkpt lat="48.64727" lon="7.21549">
        <ele>442.300903</ele>
        <time>2012-08-15T07:31:18Z</time>
      </trkpt>
      <trkpt lat="48.64703" lon="7.21549">
        <ele>442.058716</ele>
        <time>2012-08-15T07:31:30Z</time>
      </trkpt>
      <trkpt lat="48.64632" lon="7.21643">
        <ele>450.464966</ele>
        <time>2012-08-15T07:32:16Z</time>
      </trkpt>
      <trkpt lat="48.64612" lon="7.2166">
        <ele>451.121216</ele>
        <time>2012-08-15T07:32:28Z</time>
      </trkpt>
      <trkpt lat="48.64568" lon="7.21674">
        <ele>458.488403</ele>
        <time>2012-08-15T07:32:51Z</time>
      </trkpt>
      <trkpt lat="48.64497" lon="7.21669">
        <ele>474.300903</ele>
        <time>2012-08-15T07:33:25Z</time>
      </trkpt>
      <trkpt lat="48.64474" lon="7.21677">
        <ele>471.308716</ele>
        <time>2012-08-15T07:33:37Z</time>
      </trkpt>
      <trkpt lat="48.6437" lon="7.21751">
        <ele>467.277466</ele>
        <time>2012-08-15T07:34:34Z</time>
      </trkpt>
      <trkpt lat="48.64359" lon="7.21781">
        <ele>471.019653</ele>
        <time>2012-08-15T07:34:45Z</time>
      </trkpt>
      <trkpt lat="48.64354" lon="7.21816">
        <ele>471.504028</ele>
        <time>2012-08-15T07:34:56Z</time>
      </trkpt>
      <trkpt lat="48.64357" lon="7.21923">
        <ele>476.543091</ele>
        <time>2012-08-15T07:35:30Z</time>
      </trkpt>
      <trkpt lat="48.6435" lon="7.21994">
        <ele>475.066528</ele>
        <time>2012-08-15T07:35:49Z</time>
      </trkpt>
      <trkpt lat="48.6436" lon="7.22095">
        <ele>480.629028</ele>
        <time>2012-08-15T07:36:20Z</time>
      </trkpt>
      <trkpt lat="48.64359" lon="7.22201">
        <ele>484.957153</ele>
        <time>2012-08-15T07:36:46Z</time>
      </trkpt>
      <trkpt lat="48.64365" lon="7.22275">
        <ele>489.433716</ele>
        <time>2012-08-15T07:37:01Z</time>
      </trkpt>
      <trkpt lat="48.6438" lon="7.22345">
        <ele>490.629028</ele>
        <time>2012-08-15T07:37:15Z</time>
      </trkpt>
      <trkpt lat="48.64393" lon="7.22377">
        <ele>492.519653</ele>
        <time>2012-08-15T07:37:20Z</time>
      </trkpt>
      <trkpt lat="48.64428" lon="7.22431">
        <ele>503.816528</ele>
        <time>2012-08-15T07:37:31Z</time>
      </trkpt>
      <trkpt lat="48.64517" lon="7.2248">
        <ele>514.586182</ele>
        <time>2012-08-15T07:38:02Z</time>
      </trkpt>
      <trkpt lat="48.64563" lon="7.2249">
        <ele>516.429932</ele>
        <time>2012-08-15T07:38:20Z</time>
      </trkpt>
      <trkpt lat="48.64643" lon="7.22557">
        <ele>522.726807</ele>
        <time>2012-08-15T07:38:52Z</time>
      </trkpt>
      <trkpt lat="48.64717" lon="7.22651">
        <ele>513.601807</ele>
        <time>2012-08-15T07:39:28Z</time>
      </trkpt>
      <trkpt lat="48.64765" lon="7.22737">
        <ele>507.011841</ele>
        <time>2012-08-15T07:39:51Z</time>
      </trkpt>
      <trkpt lat="48.64815" lon="7.22852">
        <ele>511.683716</ele>
        <time>2012-08-15T07:40:25Z</time>
      </trkpt>
      <trkpt lat="48.64837" lon="7.23031">
        <ele>502.793091</ele>
        <time>2012-08-15T07:41:01Z</time>
      </trkpt>
      <trkpt lat="48.64835" lon="7.23108">
        <ele>495.089966</ele>
        <time>2012-08-15T07:41:13Z</time>
      </trkpt>
      <trkpt lat="48.64822" lon="7.23147">
        <ele>489.933716</ele>
        <time>2012-08-15T07:41:17Z</time>
      </trkpt>
      <trkpt lat="48.64804" lon="7.2317">
        <ele>485.316528</ele>
        <time>2012-08-15T07:41:21Z</time>
      </trkpt>
      <trkpt lat="48.64759" lon="7.23203">
        <ele>480.066528</ele>
        <time>2012-08-15T07:41:38Z</time>
      </trkpt>
      <trkpt lat="48.64746" lon="7.23231">
        <ele>480.582153</ele>
        <time>2012-08-15T07:41:52Z</time>
      </trkpt>
      <trkpt lat="48.64766" lon="7.23348">
        <ele>474.761841</ele>
        <time>2012-08-15T07:42:10Z</time>
      </trkpt>
      <trkpt lat="48.64735" lon="7.23541">
        <ele>459.418091</ele>
        <time>2012-08-15T07:42:29Z</time>
      </trkpt>
      <trkpt lat="48.64723" lon="7.23578">
        <ele>455.707153</ele>
        <time>2012-08-15T07:42:33Z</time>
      </trkpt>
      <trkpt lat="48.6469" lon="7.23633">
        <ele>449.777466</ele>
        <time>2012-08-15T07:42:41Z</time>
      </trkpt>
      <trkpt lat="48.64697" lon="7.23668">
        <ele>447.308716</ele>
        <time>2012-08-15T07:42:46Z</time>
      </trkpt>
      <trkpt lat="48.64765" lon="7.23641">
        <ele>453.285278</ele>
        <time>2012-08-15T07:43:13Z</time>
      </trkpt>
      <trkpt lat="48.64821" lon="7.23584">
        <ele>469.207153</ele>
        <time>2012-08-15T07:43:58Z</time>
      </trkpt>
      <trkpt lat="48.64849" lon="7.23533">
        <ele>484.800903</ele>
        <time>2012-08-15T07:44:29Z</time>
      </trkpt>
      <trkpt lat="48.64892" lon="7.23502">
        <ele>486.144653</ele>
        <time>2012-08-15T07:44:54Z</time>
      </trkpt>
      <trkpt lat="48.64937" lon="7.23486">
        <ele>480.543091</ele>
        <time>2012-08-15T07:45:15Z</time>
      </trkpt>
      <trkpt lat="48.64914" lon="7.23489">
        <ele>475.277466</ele>
        <time>2012-08-15T07:45:28Z</time>
      </trkpt>
      <trkpt lat="48.64875" lon="7.23526">
        <ele>473.394653</ele>
        <time>2012-08-15T07:45:49Z</time>
      </trkpt>
      <trkpt lat="48.6486" lon="7.23552">
        <ele>474.511841</ele>
        <time>2012-08-15T07:45:58Z</time>
      </trkpt>
      <trkpt lat="48.64815" lon="7.23675">
        <ele>480.652466</ele>
        <time>2012-08-15T07:46:35Z</time>
      </trkpt>
      <trkpt lat="48.64758" lon="7.23739">
        <ele>490.285278</ele>
        <time>2012-08-15T07:47:03Z</time>
      </trkpt>
      <trkpt lat="48.64726" lon="7.23797">
        <ele>488.613403</ele>
        <time>2012-08-15T07:47:19Z</time>
      </trkpt>
      <trkpt lat="48.64673" lon="7.2395">
        <ele>495.199341</ele>
        <time>2012-08-15T07:47:59Z</time>
      </trkpt>
      <trkpt lat="48.64629" lon="7.24037">
        <ele>506.316528</ele>
        <time>2012-08-15T07:48:28Z</time>
      </trkpt>
      <trkpt lat="48.64598" lon="7.24134">
        <ele>505.464966</ele>
        <time>2012-08-15T07:48:56Z</time>
      </trkpt>
      <trkpt lat="48.64563" lon="7.24303">
        <ele>522.398682</ele>
        <time>2012-08-15T07:50:05Z</time>
      </trkpt>
      <trkpt lat="48.6455" lon="7.24406">
        <ele>529.883057</ele>
        <time>2012-08-15T07:51:04Z</time>
      </trkpt>
      <trkpt lat="48.64571" lon="7.24418">
        <ele>535.148682</ele>
        <time>2012-08-15T07:51:24Z</time>
      </trkpt>
      <trkpt lat="48.64594" lon="7.24418">
        <ele>543.648682</ele>
        <time>2012-08-15T07:51:41Z</time>
      </trkpt>
      <trkpt lat="48.64849" lon="7.23992">
        <ele>536.336182</ele>
        <time>2012-08-15T07:55:18Z</time>
      </trkpt>
      <trkpt lat="48.64911" lon="7.23914">
        <ele>531.945557</ele>
        <time>2012-08-15T07:55:31Z</time>
      </trkpt>
      <trkpt lat="48.64932" lon="7.23903">
        <ele>534.101807</ele>
        <time>2012-08-15T07:55:44Z</time>
      </trkpt>
      <trkpt lat="48.64936" lon="7.23937">
        <ele>537.133057</ele>
        <time>2012-08-15T07:56:07Z</time>
      </trkpt>
      <trkpt lat="48.6492" lon="7.23962">
        <ele>538.711182</ele>
        <time>2012-08-15T07:56:24Z</time>
      </trkpt>
      <trkpt lat="48.6488" lon="7.24001">
        <ele>533.414307</ele>
        <time>2012-08-15T07:56:40Z</time>
      </trkpt>
      <trkpt lat="48.64829" lon="7.24074">
        <ele>537.195557</ele>
        <time>2012-08-15T07:57:07Z</time>
      </trkpt>
      <trkpt lat="48.64771" lon="7.24187">
        <ele>539.804932</ele>
        <time>2012-08-15T07:57:43Z</time>
      </trkpt>
      <trkpt lat="48.64703" lon="7.24338">
        <ele>543.273682</ele>
        <time>2012-08-15T07:58:28Z</time>
      </trkpt>
      <trkpt lat="48.64595" lon="7.24654">
        <ele>553.836182</ele>
        <time>2012-08-15T07:59:47Z</time>
      </trkpt>
      <trkpt lat="48.64539" lon="7.24715">
        <ele>562.508057</ele>
        <time>2012-08-15T08:00:17Z</time>
      </trkpt>
      <trkpt lat="48.64453" lon="7.24767">
        <ele>575.586182</ele>
        <time>2012-08-15T08:01:12Z</time>
      </trkpt>
      <trkpt lat="48.64431" lon="7.24786">
        <ele>576.976807</ele>
        <time>2012-08-15T08:01:30Z</time>
      </trkpt>
      <trkpt lat="48.64451" lon="7.24805">
        <ele>579.304932</ele>
        <time>2012-08-15T08:01:55Z</time>
      </trkpt>
      <trkpt lat="48.64497" lon="7.24814">
        <ele>588.398682</ele>
        <time>2012-08-15T08:03:14Z</time>
      </trkpt>
      <trkpt lat="48.6452" lon="7.24811">
        <ele>591.383057</ele>
        <time>2012-08-15T08:03:23Z</time>
      </trkpt>
      <trkpt lat="48.64481" lon="7.24842">
        <ele>579.398682</ele>
        <time>2012-08-15T08:04:13Z</time>
      </trkpt>
      <trkpt lat="48.64459" lon="7.24849">
        <ele>580.383057</ele>
        <time>2012-08-15T08:04:24Z</time>
      </trkpt>
      <trkpt lat="48.64374" lon="7.24906">
        <ele>584.976807</ele>
        <time>2012-08-15T08:05:12Z</time>
      </trkpt>
      <trkpt lat="48.64289" lon="7.25023">
        <ele>590.695557</ele>
        <time>2012-08-15T08:05:59Z</time>
      </trkpt>
      <trkpt lat="48.64309" lon="7.25044">
        <ele>591.914307</ele>
        <time>2012-08-15T08:06:09Z</time>
      </trkpt>
      <trkpt lat="48.64327" lon="7.25025">
        <ele>595.820557</ele>
        <time>2012-08-15T08:06:19Z</time>
      </trkpt>
      <trkpt lat="48.64335" lon="7.24994">
        <ele>601.179932</ele>
        <time>2012-08-15T08:06:29Z</time>
      </trkpt>
      <trkpt lat="48.64365" lon="7.24939">
        <ele>605.773682</ele>
        <time>2012-08-15T08:06:45Z</time>
      </trkpt>
      <trkpt lat="48.64409" lon="7.24909">
        <ele>607.945557</ele>
        <time>2012-08-15T08:06:56Z</time>
      </trkpt>
      <trkpt lat="48.64537" lon="7.2486">
        <ele>620.414307</ele>
        <time>2012-08-15T08:07:29Z</time>
      </trkpt>
      <trkpt lat="48.6456" lon="7.24857">
        <ele>624.539307</ele>
        <time>2012-08-15T08:07:34Z</time>
      </trkpt>
      <trkpt lat="48.64606" lon="7.24864">
        <ele>625.320557</ele>
        <time>2012-08-15T08:07:45Z</time>
      </trkpt>
      <trkpt lat="48.6465" lon="7.24857">
        <ele>605.929932</ele>
        <time>2012-08-15T08:07:57Z</time>
      </trkpt>
      <trkpt lat="48.64668" lon="7.24836">
        <ele>600.851807</ele>
        <time>2012-08-15T08:08:58Z</time>
      </trkpt>
      <trkpt lat="48.64713" lon="7.24919">
        <ele>588.461182</ele>
        <time>2012-08-15T08:14:29Z</time>
      </trkpt>
      <trkpt lat="48.6473" lon="7.24984">
        <ele>586.742432</ele>
        <time>2012-08-15T08:14:48Z</time>
      </trkpt>
      <trkpt lat="48.64737" lon="7.25428">
        <ele>583.258057</ele>
        <time>2012-08-15T08:16:11Z</time>
      </trkpt>
      <trkpt lat="48.64753" lon="7.25568">
        <ele>591.367432</ele>
        <time>2012-08-15T08:16:41Z</time>
      </trkpt>
      <trkpt lat="48.64773" lon="7.25503">
        <ele>585.883057</ele>
        <time>2012-08-15T08:17:01Z</time>
      </trkpt>
      <trkpt lat="48.64771" lon="7.25425">
        <ele>576.195557</ele>
        <time>2012-08-15T08:17:09Z</time>
      </trkpt>
      <trkpt lat="48.6479" lon="7.25358">
        <ele>577.804932</ele>
        <time>2012-08-15T08:17:20Z</time>
      </trkpt>
      <trkpt lat="48.64804" lon="7.25323">
        <ele>574.523682</ele>
        <time>2012-08-15T08:17:24Z</time>
      </trkpt>
      <trkpt lat="48.64848" lon="7.25309">
        <ele>559.304932</ele>
        <time>2012-08-15T08:17:45Z</time>
      </trkpt>
      <trkpt lat="48.64911" lon="7.25372">
        <ele>557.695557</ele>
        <time>2012-08-15T08:19:00Z</time>
      </trkpt>
      <trkpt lat="48.64983" lon="7.25522">
        <ele>554.851807</ele>
        <time>2012-08-15T08:19:27Z</time>
      </trkpt>
      <trkpt lat="48.65042" lon="7.25573">
        <ele>555.929932</ele>
        <time>2012-08-15T08:19:43Z</time>
      </trkpt>
      <trkpt lat="48.65067" lon="7.25583">
        <ele>557.070557</ele>
        <time>2012-08-15T08:19:50Z</time>
      </trkpt>
      <trkpt lat="48.65112" lon="7.25582">
        <ele>543.992432</ele>
        <time>2012-08-15T08:20:20Z</time>
      </trkpt>
      <trkpt lat="48.65135" lon="7.25523">
        <ele>542.867432</ele>
        <time>2012-08-15T08:20:34Z</time>
      </trkpt>
      <trkpt lat="48.65157" lon="7.25504">
        <ele>546.773682</ele>
        <time>2012-08-15T08:20:38Z</time>
      </trkpt>
      <trkpt lat="48.65202" lon="7.25481">
        <ele>554.398682</ele>
        <time>2012-08-15T08:20:46Z</time>
      </trkpt>
      <trkpt lat="48.6525" lon="7.25472">
        <ele>566.539307</ele>
        <time>2012-08-15T08:20:56Z</time>
      </trkpt>
      <trkpt lat="48.65278" lon="7.25457">
        <ele>572.054932</ele>
        <time>2012-08-15T08:21:02Z</time>
      </trkpt>
      <trkpt lat="48.65329" lon="7.25444">
        <ele>575.336182</ele>
        <time>2012-08-15T08:21:12Z</time>
      </trkpt>
      <trkpt lat="48.65369" lon="7.25407">
        <ele>567.773682</ele>
        <time>2012-08-15T08:21:26Z</time>
      </trkpt>
      <trkpt lat="48.65419" lon="7.25411">
        <ele>557.039307</ele>
        <time>2012-08-15T08:21:41Z</time>
      </trkpt>
      <trkpt lat="48.65531" lon="7.25471">
        <ele>566.023682</ele>
        <time>2012-08-15T08:22:21Z</time>
      </trkpt>
      <trkpt lat="48.65601" lon="7.25502">
        <ele>556.258057</ele>
        <time>2012-08-15T08:22:38Z</time>
      </trkpt>
      <trkpt lat="48.65627" lon="7.25512">
        <ele>551.133057</ele>
        <time>2012-08-15T08:22:43Z</time>
      </trkpt>
      <trkpt lat="48.6565" lon="7.25517">
        <ele>548.023682</ele>
        <time>2012-08-15T08:22:48Z</time>
      </trkpt>
      <trkpt lat="48.65717" lon="7.25484">
        <ele>534.789307</ele>
        <time>2012-08-15T08:23:29Z</time>
      </trkpt>
      <trkpt lat="48.65764" lon="7.25473">
        <ele>525.226807</ele>
        <time>2012-08-15T08:23:44Z</time>
      </trkpt>
      <trkpt lat="48.65838" lon="7.25484">
        <ele>514.023682</ele>
        <time>2012-08-15T08:24:02Z</time>
      </trkpt>
      <trkpt lat="48.65883" lon="7.25515">
        <ele>511.660278</ele>
        <time>2012-08-15T08:24:17Z</time>
      </trkpt>
      <trkpt lat="48.65929" lon="7.25515">
        <ele>503.933716</ele>
        <time>2012-08-15T08:24:31Z</time>
      </trkpt>
      <trkpt lat="48.66115" lon="7.2542">
        <ele>476.761841</ele>
        <time>2012-08-15T08:25:50Z</time>
      </trkpt>
      <trkpt lat="48.66173" lon="7.25339">
        <ele>469.699341</ele>
        <time>2012-08-15T08:25:59Z</time>
      </trkpt>
      <trkpt lat="48.66206" lon="7.25268">
        <ele>466.199341</ele>
        <time>2012-08-15T08:26:05Z</time>
      </trkpt>
      <trkpt lat="48.66228" lon="7.25257">
        <ele>465.558716</ele>
        <time>2012-08-15T08:26:08Z</time>
      </trkpt>
      <trkpt lat="48.66278" lon="7.25277">
        <ele>468.300903</ele>
        <time>2012-08-15T08:26:16Z</time>
      </trkpt>
      <trkpt lat="48.66303" lon="7.2528">
        <ele>468.074341</ele>
        <time>2012-08-15T08:26:20Z</time>
      </trkpt>
      <trkpt lat="48.66349" lon="7.25248">
        <ele>468.605591</ele>
        <time>2012-08-15T08:26:30Z</time>
      </trkpt>
      <trkpt lat="48.66413" lon="7.25191">
        <ele>466.261841</ele>
        <time>2012-08-15T08:26:45Z</time>
      </trkpt>
      <trkpt lat="48.66456" lon="7.25148">
        <ele>465.293091</ele>
        <time>2012-08-15T08:26:56Z</time>
      </trkpt>
      <trkpt lat="48.6649" lon="7.25098">
        <ele>465.769653</ele>
        <time>2012-08-15T08:27:06Z</time>
      </trkpt>
      <trkpt lat="48.66557" lon="7.24947">
        <ele>476.800903</ele>
        <time>2012-08-15T08:27:34Z</time>
      </trkpt>
      <trkpt lat="48.66589" lon="7.24888">
        <ele>477.996216</ele>
        <time>2012-08-15T08:27:47Z</time>
      </trkpt>
      <trkpt lat="48.66583" lon="7.2492">
        <ele>472.832153</ele>
        <time>2012-08-15T08:28:08Z</time>
      </trkpt>
      <trkpt lat="48.66528" lon="7.25056">
        <ele>489.816528</ele>
        <time>2012-08-15T08:28:31Z</time>
      </trkpt>
      <trkpt lat="48.66438" lon="7.25228">
        <ele>517.726807</ele>
        <time>2012-08-15T08:29:06Z</time>
      </trkpt>
      <trkpt lat="48.66453" lon="7.25255">
        <ele>519.539307</ele>
        <time>2012-08-15T08:29:14Z</time>
      </trkpt>
      <trkpt lat="48.66523" lon="7.25236">
        <ele>524.664307</ele>
        <time>2012-08-15T08:29:40Z</time>
      </trkpt>
      <trkpt lat="48.6654" lon="7.25291">
        <ele>522.351807</ele>
        <time>2012-08-15T08:29:41Z</time>
      </trkpt>
      <trkpt lat="48.66564" lon="7.25295">
        <ele>520.508057</ele>
        <time>2012-08-15T08:29:57Z</time>
      </trkpt>
      <trkpt lat="48.66586" lon="7.25287">
        <ele>514.961182</ele>
        <time>2012-08-15T08:30:05Z</time>
      </trkpt>
      <trkpt lat="48.66607" lon="7.25269">
        <ele>510.332153</ele>
        <time>2012-08-15T08:30:18Z</time>
      </trkpt>
      <trkpt lat="48.66652" lon="7.2527">
        <ele>498.949341</ele>
        <time>2012-08-15T08:30:57Z</time>
      </trkpt>
      <trkpt lat="48.66673" lon="7.25261">
        <ele>490.644653</ele>
        <time>2012-08-15T08:32:00Z</time>
      </trkpt>
      <trkpt lat="48.66693" lon="7.25242">
        <ele>486.160278</ele>
        <time>2012-08-15T08:32:28Z</time>
      </trkpt>
      <trkpt lat="48.66682" lon="7.2527">
        <ele>480.269653</ele>
        <time>2012-08-15T08:32:45Z</time>
      </trkpt>
      <trkpt lat="48.66704" lon="7.25262">
        <ele>476.199341</ele>
        <time>2012-08-15T08:32:57Z</time>
      </trkpt>
      <trkpt lat="48.66741" lon="7.25224">
        <ele>460.464966</ele>
        <time>2012-08-15T08:33:33Z</time>
      </trkpt>
      <trkpt lat="48.66763" lon="7.2522">
        <ele>450.800903</ele>
        <time>2012-08-15T08:33:43Z</time>
      </trkpt>
      <trkpt lat="48.66781" lon="7.25204">
        <ele>440.714966</ele>
        <time>2012-08-15T08:33:55Z</time>
      </trkpt>
      <trkpt lat="48.66808" lon="7.25152">
        <ele>420.371216</ele>
        <time>2012-08-15T08:34:10Z</time>
      </trkpt>
      <trkpt lat="48.66849" lon="7.25119">
        <ele>412.886841</ele>
        <time>2012-08-15T08:34:36Z</time>
      </trkpt>
      <trkpt lat="48.66893" lon="7.25099">
        <ele>411.254028</ele>
        <time>2012-08-15T08:35:07Z</time>
      </trkpt>
      <trkpt lat="48.66916" lon="7.25101">
        <ele>409.863403</ele>
        <time>2012-08-15T08:35:26Z</time>
      </trkpt>
      <trkpt lat="48.66936" lon="7.25083">
        <ele>411.504028</ele>
        <time>2012-08-15T08:35:39Z</time>
      </trkpt>
      <trkpt lat="48.67001" lon="7.24988">
        <ele>424.918091</ele>
        <time>2012-08-15T08:36:42Z</time>
      </trkpt>
      <trkpt lat="48.67044" lon="7.24967">
        <ele>427.464966</ele>
        <time>2012-08-15T08:37:06Z</time>
      </trkpt>
      <trkpt lat="48.67067" lon="7.2497">
        <ele>427.777466</ele>
        <time>2012-08-15T08:37:21Z</time>
      </trkpt>
      <trkpt lat="48.67112" lon="7.2498">
        <ele>420.824341</ele>
        <time>2012-08-15T08:38:03Z</time>
      </trkpt>
      <trkpt lat="48.67075" lon="7.25022">
        <ele>428.527466</ele>
        <time>2012-08-15T08:38:47Z</time>
      </trkpt>
      <trkpt lat="48.6706" lon="7.25049">
        <ele>431.769653</ele>
        <time>2012-08-15T08:39:05Z</time>
      </trkpt>
      <trkpt lat="48.67051" lon="7.25083">
        <ele>431.230591</ele>
        <time>2012-08-15T08:39:28Z</time>
      </trkpt>
      <trkpt lat="48.67022" lon="7.25135">
        <ele>432.129028</ele>
        <time>2012-08-15T08:40:47Z</time>
      </trkpt>
      <trkpt lat="48.67007" lon="7.25201">
        <ele>433.550903</ele>
        <time>2012-08-15T08:41:18Z</time>
      </trkpt>
      <trkpt lat="48.66991" lon="7.25225">
        <ele>439.621216</ele>
        <time>2012-08-15T08:41:37Z</time>
      </trkpt>
      <trkpt lat="48.66982" lon="7.25257">
        <ele>443.230591</ele>
        <time>2012-08-15T08:41:52Z</time>
      </trkpt>
      <trkpt lat="48.66969" lon="7.25323">
        <ele>451.675903</ele>
        <time>2012-08-15T08:42:29Z</time>
      </trkpt>
      <trkpt lat="48.66917" lon="7.25435">
        <ele>463.464966</ele>
        <time>2012-08-15T08:43:36Z</time>
      </trkpt>
      <trkpt lat="48.66901" lon="7.25502">
        <ele>467.277466</ele>
        <time>2012-08-15T08:44:08Z</time>
      </trkpt>
      <trkpt lat="48.66922" lon="7.25516">
        <ele>472.894653</ele>
        <time>2012-08-15T08:44:33Z</time>
      </trkpt>
      <trkpt lat="48.66943" lon="7.25504">
        <ele>478.793091</ele>
        <time>2012-08-15T08:44:48Z</time>
      </trkpt>
      <trkpt lat="48.67061" lon="7.254">
        <ele>499.707153</ele>
        <time>2012-08-15T08:46:09Z</time>
      </trkpt>
      <trkpt lat="48.67136" lon="7.25313">
        <ele>502.769653</ele>
        <time>2012-08-15T08:46:51Z</time>
      </trkpt>
      <trkpt lat="48.67224" lon="7.25273">
        <ele>499.847778</ele>
        <time>2012-08-15T08:47:42Z</time>
      </trkpt>
      <trkpt lat="48.67289" lon="7.25233">
        <ele>502.371216</ele>
        <time>2012-08-15T08:48:20Z</time>
      </trkpt>
      <trkpt lat="48.67303" lon="7.25256">
        <ele>492.558716</ele>
        <time>2012-08-15T08:48:39Z</time>
      </trkpt>
      <trkpt lat="48.67308" lon="7.25324">
        <ele>497.800903</ele>
        <time>2012-08-15T08:49:29Z</time>
      </trkpt>
      <trkpt lat="48.67301" lon="7.25358">
        <ele>496.168091</ele>
        <time>2012-08-15T08:49:48Z</time>
      </trkpt>
      <trkpt lat="48.67302" lon="7.25392">
        <ele>496.457153</ele>
        <time>2012-08-15T08:50:11Z</time>
      </trkpt>
      <trkpt lat="48.67313" lon="7.25422">
        <ele>495.464966</ele>
        <time>2012-08-15T08:56:25Z</time>
      </trkpt>
      <trkpt lat="48.67307" lon="7.25389">
        <ele>499.394653</ele>
        <time>2012-08-15T08:57:38Z</time>
      </trkpt>
      <trkpt lat="48.67315" lon="7.25354">
        <ele>501.144653</ele>
        <time>2012-08-15T08:57:48Z</time>
      </trkpt>
      <trkpt lat="48.67346" lon="7.253">
        <ele>506.230591</ele>
        <time>2012-08-15T08:58:03Z</time>
      </trkpt>
      <trkpt lat="48.67383" lon="7.25253">
        <ele>510.160278</ele>
        <time>2012-08-15T08:58:15Z</time>
      </trkpt>
      <trkpt lat="48.67426" lon="7.25166">
        <ele>513.258057</ele>
        <time>2012-08-15T08:58:36Z</time>
      </trkpt>
      <trkpt lat="48.67486" lon="7.25113">
        <ele>501.652466</ele>
        <time>2012-08-15T08:58:57Z</time>
      </trkpt>
      <trkpt lat="48.67535" lon="7.25032">
        <ele>491.988403</ele>
        <time>2012-08-15T08:59:23Z</time>
      </trkpt>
      <trkpt lat="48.6758" lon="7.25009">
        <ele>488.386841</ele>
        <time>2012-08-15T08:59:37Z</time>
      </trkpt>
      <trkpt lat="48.67616" lon="7.24958">
        <ele>493.839966</ele>
        <time>2012-08-15T09:00:04Z</time>
      </trkpt>
      <trkpt lat="48.67639" lon="7.24896">
        <ele>497.886841</ele>
        <time>2012-08-15T09:00:25Z</time>
      </trkpt>
      <trkpt lat="48.67651" lon="7.24828">
        <ele>510.066528</ele>
        <time>2012-08-15T09:00:53Z</time>
      </trkpt>
      <trkpt lat="48.67677" lon="7.24591">
        <ele>531.101807</ele>
        <time>2012-08-15T09:03:27Z</time>
      </trkpt>
      <trkpt lat="48.67663" lon="7.24563">
        <ele>533.258057</ele>
        <time>2012-08-15T09:04:12Z</time>
      </trkpt>
      <trkpt lat="48.67646" lon="7.24583">
        <ele>526.476807</ele>
        <time>2012-08-15T09:04:32Z</time>
      </trkpt>
      <trkpt lat="48.67634" lon="7.24613">
        <ele>524.367432</ele>
        <time>2012-08-15T09:04:44Z</time>
      </trkpt>
      <trkpt lat="48.67646" lon="7.24583">
        <ele>526.289307</ele>
        <time>2012-08-15T09:09:40Z</time>
      </trkpt>
      <trkpt lat="48.67679" lon="7.24534">
        <ele>524.695557</ele>
        <time>2012-08-15T09:10:14Z</time>
      </trkpt>
      <trkpt lat="48.67702" lon="7.24517">
        <ele>527.273682</ele>
        <time>2012-08-15T09:10:22Z</time>
      </trkpt>
      <trkpt lat="48.6772" lon="7.24492">
        <ele>528.976807</ele>
        <time>2012-08-15T09:10:28Z</time>
      </trkpt>
      <trkpt lat="48.67711" lon="7.24462">
        <ele>520.570557</ele>
        <time>2012-08-15T09:10:50Z</time>
      </trkpt>
      <trkpt lat="48.6769" lon="7.24472">
        <ele>519.054932</ele>
        <time>2012-08-15T09:10:55Z</time>
      </trkpt>
      <trkpt lat="48.67631" lon="7.24549">
        <ele>508.863403</ele>
        <time>2012-08-15T09:11:10Z</time>
      </trkpt>
      <trkpt lat="48.67558" lon="7.247">
        <ele>490.964966</ele>
        <time>2012-08-15T09:11:30Z</time>
      </trkpt>
      <trkpt lat="48.6754" lon="7.2484">
        <ele>504.527466</ele>
        <time>2012-08-15T09:12:00Z</time>
      </trkpt>
      <trkpt lat="48.67524" lon="7.2491">
        <ele>514.211182</ele>
        <time>2012-08-15T09:12:10Z</time>
      </trkpt>
      <trkpt lat="48.67523" lon="7.24974">
        <ele>498.996216</ele>
        <time>2012-08-15T09:12:33Z</time>
      </trkpt>
      <trkpt lat="48.67488" lon="7.2502">
        <ele>495.011841</ele>
        <time>2012-08-15T09:12:46Z</time>
      </trkpt>
      <trkpt lat="48.67503" lon="7.24917">
        <ele>494.824341</ele>
        <time>2012-08-15T09:13:22Z</time>
      </trkpt>
      <trkpt lat="48.67514" lon="7.24737">
        <ele>503.816528</ele>
        <time>2012-08-15T09:13:47Z</time>
      </trkpt>
      <trkpt lat="48.67524" lon="7.24665">
        <ele>511.660278</ele>
        <time>2012-08-15T09:13:56Z</time>
      </trkpt>
      <trkpt lat="48.67542" lon="7.24601">
        <ele>516.695557</ele>
        <time>2012-08-15T09:14:04Z</time>
      </trkpt>
      <trkpt lat="48.6754" lon="7.24527">
        <ele>520.008057</ele>
        <time>2012-08-15T09:14:16Z</time>
      </trkpt>
      <trkpt lat="48.67559" lon="7.24466">
        <ele>521.320557</ele>
        <time>2012-08-15T09:14:34Z</time>
      </trkpt>
      <trkpt lat="48.6767" lon="7.24234">
        <ele>534.179932</ele>
        <time>2012-08-15T09:15:35Z</time>
      </trkpt>
      <trkpt lat="48.67672" lon="7.24195">
        <ele>539.633057</ele>
        <time>2012-08-15T09:15:41Z</time>
      </trkpt>
      <trkpt lat="48.67697" lon="7.24093">
        <ele>560.039307</ele>
        <time>2012-08-15T09:16:00Z</time>
      </trkpt>
      <trkpt lat="48.67706" lon="7.24024">
        <ele>567.758057</ele>
        <time>2012-08-15T09:16:11Z</time>
      </trkpt>
      <trkpt lat="48.67704" lon="7.23948">
        <ele>571.508057</ele>
        <time>2012-08-15T09:16:21Z</time>
      </trkpt>
      <trkpt lat="48.6771" lon="7.23907">
        <ele>579.101807</ele>
        <time>2012-08-15T09:16:25Z</time>
      </trkpt>
      <trkpt lat="48.67709" lon="7.23756">
        <ele>588.883057</ele>
        <time>2012-08-15T09:16:40Z</time>
      </trkpt>
      <trkpt lat="48.67691" lon="7.23691">
        <ele>570.836182</ele>
        <time>2012-08-15T09:16:52Z</time>
      </trkpt>
      <trkpt lat="48.6769" lon="7.23659">
        <ele>564.070557</ele>
        <time>2012-08-15T09:16:56Z</time>
      </trkpt>
      <trkpt lat="48.67695" lon="7.23589">
        <ele>548.445557</ele>
        <time>2012-08-15T09:17:05Z</time>
      </trkpt>
      <trkpt lat="48.6769" lon="7.23285">
        <ele>524.929932</ele>
        <time>2012-08-15T09:17:38Z</time>
      </trkpt>
      <trkpt lat="48.67677" lon="7.23253">
        <ele>522.211182</ele>
        <time>2012-08-15T09:17:41Z</time>
      </trkpt>
      <trkpt lat="48.67669" lon="7.23142">
        <ele>516.633057</ele>
        <time>2012-08-15T09:17:51Z</time>
      </trkpt>
      <trkpt lat="48.67645" lon="7.23037">
        <ele>501.496216</ele>
        <time>2012-08-15T09:18:00Z</time>
      </trkpt>
      <trkpt lat="48.67643" lon="7.22953">
        <ele>495.683716</ele>
        <time>2012-08-15T09:18:07Z</time>
      </trkpt>
      <trkpt lat="48.67578" lon="7.22751">
        <ele>492.074341</ele>
        <time>2012-08-15T09:18:37Z</time>
      </trkpt>
      <trkpt lat="48.67572" lon="7.22707">
        <ele>488.933716</ele>
        <time>2012-08-15T09:18:40Z</time>
      </trkpt>
      <trkpt lat="48.6755" lon="7.22643">
        <ele>470.582153</ele>
        <time>2012-08-15T09:19:07Z</time>
      </trkpt>
      <trkpt lat="48.67542" lon="7.22561">
        <ele>466.738403</ele>
        <time>2012-08-15T09:19:18Z</time>
      </trkpt>
      <trkpt lat="48.67532" lon="7.22525">
        <ele>467.910278</ele>
        <time>2012-08-15T09:19:24Z</time>
      </trkpt>
      <trkpt lat="48.67534" lon="7.22354">
        <ele>461.504028</ele>
        <time>2012-08-15T09:19:51Z</time>
      </trkpt>
      <trkpt lat="48.67551" lon="7.2229">
        <ele>450.699341</ele>
        <time>2012-08-15T09:20:11Z</time>
      </trkpt>
      <trkpt lat="48.67543" lon="7.22273">
        <ele>430.941528</ele>
        <time>2012-08-15T09:20:30Z</time>
      </trkpt>
      <trkpt lat="48.67555" lon="7.22247">
        <ele>422.972778</ele>
        <time>2012-08-15T09:20:52Z</time>
      </trkpt>
      <trkpt lat="48.67574" lon="7.22227">
        <ele>428.347778</ele>
        <time>2012-08-15T09:21:05Z</time>
      </trkpt>
      <trkpt lat="48.67642" lon="7.22207">
        <ele>419.777466</ele>
        <time>2012-08-15T09:21:52Z</time>
      </trkpt>
      <trkpt lat="48.67701" lon="7.2231">
        <ele>415.191528</ele>
        <time>2012-08-15T09:23:00Z</time>
      </trkpt>
      <trkpt lat="48.67785" lon="7.22359">
        <ele>430.964966</ele>
        <time>2012-08-15T09:23:52Z</time>
      </trkpt>
      <trkpt lat="48.67887" lon="7.2245">
        <ele>436.816528</ele>
        <time>2012-08-15T09:24:45Z</time>
      </trkpt>
      <trkpt lat="48.67925" lon="7.22497">
        <ele>435.121216</ele>
        <time>2012-08-15T09:25:01Z</time>
      </trkpt>
      <trkpt lat="48.6797" lon="7.22582">
        <ele>443.433716</ele>
        <time>2012-08-15T09:25:27Z</time>
      </trkpt>
      <trkpt lat="48.68009" lon="7.22631">
        <ele>447.410278</ele>
        <time>2012-08-15T09:25:46Z</time>
      </trkpt>
      <trkpt lat="48.68051" lon="7.22665">
        <ele>443.941528</ele>
        <time>2012-08-15T09:26:01Z</time>
      </trkpt>
      <trkpt lat="48.68075" lon="7.22671">
        <ele>445.589966</ele>
        <time>2012-08-15T09:26:09Z</time>
      </trkpt>
      <trkpt lat="48.68121" lon="7.22669">
        <ele>440.574341</ele>
        <time>2012-08-15T09:26:22Z</time>
      </trkpt>
      <trkpt lat="48.68143" lon="7.22654">
        <ele>443.668091</ele>
        <time>2012-08-15T09:26:31Z</time>
      </trkpt>
      <trkpt lat="48.68225" lon="7.22478">
        <ele>448.629028</ele>
        <time>2012-08-15T09:27:05Z</time>
      </trkpt>
      <trkpt lat="48.6828" lon="7.22316">
        <ele>448.277466</ele>
        <time>2012-08-15T09:27:46Z</time>
      </trkpt>
      <trkpt lat="48.68323" lon="7.2229">
        <ele>445.558716</ele>
        <time>2012-08-15T09:28:03Z</time>
      </trkpt>
      <trkpt lat="48.68343" lon="7.22309">
        <ele>444.746216</ele>
        <time>2012-08-15T09:28:11Z</time>
      </trkpt>
      <trkpt lat="48.68356" lon="7.22343">
        <ele>444.925903</ele>
        <time>2012-08-15T09:28:22Z</time>
      </trkpt>
      <trkpt lat="48.68399" lon="7.22511">
        <ele>455.097778</ele>
        <time>2012-08-15T09:29:01Z</time>
      </trkpt>
      <trkpt lat="48.68403" lon="7.22547">
        <ele>460.832153</ele>
        <time>2012-08-15T09:29:10Z</time>
      </trkpt>
      <trkpt lat="48.68427" lon="7.2261">
        <ele>472.332153</ele>
        <time>2012-08-15T09:29:28Z</time>
      </trkpt>
      <trkpt lat="48.6853" lon="7.22708">
        <ele>490.730591</ele>
        <time>2012-08-15T09:29:59Z</time>
      </trkpt>
      <trkpt lat="48.68544" lon="7.22736">
        <ele>493.527466</ele>
        <time>2012-08-15T09:30:05Z</time>
      </trkpt>
      <trkpt lat="48.68624" lon="7.22816">
        <ele>506.394653</ele>
        <time>2012-08-15T09:30:28Z</time>
      </trkpt>
      <trkpt lat="48.68686" lon="7.22936">
        <ele>513.758057</ele>
        <time>2012-08-15T09:30:54Z</time>
      </trkpt>
      <trkpt lat="48.68725" lon="7.22987">
        <ele>521.914307</ele>
        <time>2012-08-15T09:31:04Z</time>
      </trkpt>
      <trkpt lat="48.68732" lon="7.23023">
        <ele>520.648682</ele>
        <time>2012-08-15T09:31:10Z</time>
      </trkpt>
      <trkpt lat="48.68729" lon="7.23107">
        <ele>512.492432</ele>
        <time>2012-08-15T09:31:21Z</time>
      </trkpt>
      <trkpt lat="48.68762" lon="7.23246">
        <ele>462.683716</ele>
        <time>2012-08-15T09:32:43Z</time>
      </trkpt>
      <trkpt lat="48.68744" lon="7.23236">
        <ele>445.988403</ele>
        <time>2012-08-15T09:33:12Z</time>
      </trkpt>
      <trkpt lat="48.68724" lon="7.23234">
        <ele>433.105591</ele>
        <time>2012-08-15T09:33:23Z</time>
      </trkpt>
      <trkpt lat="48.68723" lon="7.2327">
        <ele>423.879028</ele>
        <time>2012-08-15T09:33:55Z</time>
      </trkpt>
      <trkpt lat="48.68732" lon="7.23301">
        <ele>423.996216</ele>
        <time>2012-08-15T09:34:00Z</time>
      </trkpt>
      <trkpt lat="48.68751" lon="7.23335">
        <ele>419.254028</ele>
        <time>2012-08-15T09:34:04Z</time>
      </trkpt>
      <trkpt lat="48.6881" lon="7.23413">
        <ele>399.496216</ele>
        <time>2012-08-15T09:34:18Z</time>
      </trkpt>
      <trkpt lat="48.68874" lon="7.23461">
        <ele>386.566528</ele>
        <time>2012-08-15T09:34:56Z</time>
      </trkpt>
      <trkpt lat="48.68957" lon="7.23551">
        <ele>364.066528</ele>
        <time>2012-08-15T09:35:19Z</time>
      </trkpt>
      <trkpt lat="48.68982" lon="7.23557">
        <ele>353.175903</ele>
        <time>2012-08-15T09:35:25Z</time>
      </trkpt>
      <trkpt lat="48.69067" lon="7.23669">
        <ele>320.785278</ele>
        <time>2012-08-15T09:35:51Z</time>
      </trkpt>
      <trkpt lat="48.69129" lon="7.23709">
        <ele>295.738403</ele>
        <time>2012-08-15T09:36:49Z</time>
      </trkpt>
      <trkpt lat="48.69151" lon="7.237">
        <ele>298.847778</ele>
        <time>2012-08-15T09:37:33Z</time>
      </trkpt>
      <trkpt lat="48.69148" lon="7.23739">
        <ele>305.293091</ele>
        <time>2012-08-15T09:38:04Z</time>
      </trkpt>
      <trkpt lat="48.69171" lon="7.23746">
        <ele>305.816528</ele>
        <time>2012-08-15T09:38:12Z</time>
      </trkpt>
      <trkpt lat="48.6923" lon="7.23701">
        <ele>308.144653</ele>
        <time>2012-08-15T09:39:57Z</time>
      </trkpt>
      <trkpt lat="48.6928" lon="7.23635">
        <ele>324.808716</ele>
        <time>2012-08-15T09:41:02Z</time>
      </trkpt>
      <trkpt lat="48.69382" lon="7.23561">
        <ele>340.691528</ele>
        <time>2012-08-15T09:42:51Z</time>
      </trkpt>
      <trkpt lat="48.69492" lon="7.23458">
        <ele>391.863403</ele>
        <time>2012-08-15T09:45:07Z</time>
      </trkpt>
      <trkpt lat="48.69514" lon="7.23463">
        <ele>396.527466</ele>
        <time>2012-08-15T09:45:29Z</time>
      </trkpt>
      <trkpt lat="48.69537" lon="7.23458">
        <ele>395.293091</ele>
        <time>2012-08-15T09:45:44Z</time>
      </trkpt>
      <trkpt lat="48.69581" lon="7.23478">
        <ele>386.902466</ele>
        <time>2012-08-15T09:46:12Z</time>
      </trkpt>
      <trkpt lat="48.69604" lon="7.23481">
        <ele>383.191528</ele>
        <time>2012-08-15T09:46:36Z</time>
      </trkpt>
      <trkpt lat="48.69609" lon="7.23514">
        <ele>382.019653</ele>
        <time>2012-08-15T09:48:01Z</time>
      </trkpt>
      <trkpt lat="48.6963" lon="7.23507">
        <ele>372.222778</ele>
        <time>2012-08-15T09:48:48Z</time>
      </trkpt>
      <trkpt lat="48.69645" lon="7.23533">
        <ele>371.738403</ele>
        <time>2012-08-15T09:49:16Z</time>
      </trkpt>
      <trkpt lat="48.69737" lon="7.23633">
        <ele>398.839966</ele>
        <time>2012-08-15T09:51:53Z</time>
      </trkpt>
      <trkpt lat="48.69769" lon="7.23679">
        <ele>406.949341</ele>
        <time>2012-08-15T09:52:59Z</time>
      </trkpt>
      <trkpt lat="48.69772" lon="7.23712">
        <ele>416.097778</ele>
        <time>2012-08-15T09:53:20Z</time>
      </trkpt>
      <trkpt lat="48.69785" lon="7.23737">
        <ele>425.019653</ele>
        <time>2012-08-15T09:54:29Z</time>
      </trkpt>
      <trkpt lat="48.69836" lon="7.23802">
        <ele>445.105591</ele>
        <time>2012-08-15T09:55:20Z</time>
      </trkpt>
      <trkpt lat="48.69902" lon="7.23842">
        <ele>451.918091</ele>
        <time>2012-08-15T09:56:21Z</time>
      </trkpt>
      <trkpt lat="48.69943" lon="7.23845">
        <ele>429.386841</ele>
        <time>2012-08-15T09:56:50Z</time>
      </trkpt>
      <trkpt lat="48.69964" lon="7.23853">
        <ele>437.386841</ele>
        <time>2012-08-15T09:57:39Z</time>
      </trkpt>
      <trkpt lat="48.70005" lon="7.23881">
        <ele>433.089966</ele>
        <time>2012-08-15T09:58:39Z</time>
      </trkpt>
      <trkpt lat="48.70053" lon="7.2395">
        <ele>455.879028</ele>
        <time>2012-08-15T09:59:40Z</time>
      </trkpt>
      <trkpt lat="48.70065" lon="7.23981">
        <ele>462.964966</ele>
        <time>2012-08-15T09:59:54Z</time>
      </trkpt>
      <trkpt lat="48.70152" lon="7.24047">
        <ele>463.894653</ele>
        <time>2012-08-15T10:00:21Z</time>
      </trkpt>
      <trkpt lat="48.70193" lon="7.24102">
        <ele>455.644653</ele>
        <time>2012-08-15T10:00:27Z</time>
      </trkpt>
      <trkpt lat="48.70247" lon="7.24143">
        <ele>444.254028</ele>
        <time>2012-08-15T10:00:33Z</time>
      </trkpt>
      <trkpt lat="48.70281" lon="7.24188">
        <ele>428.402466</ele>
        <time>2012-08-15T10:00:43Z</time>
      </trkpt>
      <trkpt lat="48.70261" lon="7.24213">
        <ele>427.769653</ele>
        <time>2012-08-15T10:01:25Z</time>
      </trkpt>
      <trkpt lat="48.70211" lon="7.24222">
        <ele>429.105591</ele>
        <time>2012-08-15T10:01:33Z</time>
      </trkpt>
      <trkpt lat="48.70156" lon="7.2426">
        <ele>433.582153</ele>
        <time>2012-08-15T10:01:43Z</time>
      </trkpt>
      <trkpt lat="48.70068" lon="7.24367">
        <ele>440.589966</ele>
        <time>2012-08-15T10:01:53Z</time>
      </trkpt>
      <trkpt lat="48.70051" lon="7.24397">
        <ele>443.839966</ele>
        <time>2012-08-15T10:01:56Z</time>
      </trkpt>
      <trkpt lat="48.70045" lon="7.24431">
        <ele>447.800903</ele>
        <time>2012-08-15T10:02:01Z</time>
      </trkpt>
      <trkpt lat="48.70052" lon="7.24516">
        <ele>458.316528</ele>
        <time>2012-08-15T10:02:14Z</time>
      </trkpt>
      <trkpt lat="48.70078" lon="7.24619">
        <ele>472.238403</ele>
        <time>2012-08-15T10:02:29Z</time>
      </trkpt>
      <trkpt lat="48.70076" lon="7.24652">
        <ele>480.472778</ele>
        <time>2012-08-15T10:02:38Z</time>
      </trkpt>
      <trkpt lat="48.70086" lon="7.24686">
        <ele>485.316528</ele>
        <time>2012-08-15T10:02:45Z</time>
      </trkpt>
      <trkpt lat="48.70108" lon="7.24691">
        <ele>489.472778</ele>
        <time>2012-08-15T10:02:51Z</time>
      </trkpt>
      <trkpt lat="48.70115" lon="7.24724">
        <ele>492.097778</ele>
        <time>2012-08-15T10:02:58Z</time>
      </trkpt>
      <trkpt lat="48.70164" lon="7.24842">
        <ele>499.355591</ele>
        <time>2012-08-15T10:03:45Z</time>
      </trkpt>
      <trkpt lat="48.70182" lon="7.24864">
        <ele>498.207153</ele>
        <time>2012-08-15T10:03:56Z</time>
      </trkpt>
      <trkpt lat="48.70237" lon="7.24986">
        <ele>517.179932</ele>
        <time>2012-08-15T10:04:31Z</time>
      </trkpt>
      <trkpt lat="48.70315" lon="7.25081">
        <ele>519.836182</ele>
        <time>2012-08-15T10:04:50Z</time>
      </trkpt>
      <trkpt lat="48.70417" lon="7.25096">
        <ele>517.054932</ele>
        <time>2012-08-15T10:05:09Z</time>
      </trkpt>
      <trkpt lat="48.70507" lon="7.25138">
        <ele>491.714966</ele>
        <time>2012-08-15T10:05:25Z</time>
      </trkpt>
      <trkpt lat="48.70549" lon="7.2517">
        <ele>478.089966</ele>
        <time>2012-08-15T10:05:34Z</time>
      </trkpt>
      <trkpt lat="48.70582" lon="7.25225">
        <ele>456.504028</ele>
        <time>2012-08-15T10:05:45Z</time>
      </trkpt>
      <trkpt lat="48.70603" lon="7.25239">
        <ele>457.535278</ele>
        <time>2012-08-15T10:05:54Z</time>
      </trkpt>
      <trkpt lat="48.70614" lon="7.25265">
        <ele>444.277466</ele>
        <time>2012-08-15T10:06:58Z</time>
      </trkpt>
      <trkpt lat="48.70613" lon="7.253">
        <ele>440.004028</ele>
        <time>2012-08-15T10:07:30Z</time>
      </trkpt>
      <trkpt lat="48.70575" lon="7.25334">
        <ele>443.754028</ele>
        <time>2012-08-15T10:08:39Z</time>
      </trkpt>
      <trkpt lat="48.70564" lon="7.25362">
        <ele>453.824341</ele>
        <time>2012-08-15T10:09:11Z</time>
      </trkpt>
      <trkpt lat="48.70563" lon="7.25396">
        <ele>448.652466</ele>
        <time>2012-08-15T10:13:12Z</time>
      </trkpt>
      <trkpt lat="48.70577" lon="7.25461">
        <ele>441.113403</ele>
        <time>2012-08-15T10:13:31Z</time>
      </trkpt>
      <trkpt lat="48.70571" lon="7.25493">
        <ele>452.144653</ele>
        <time>2012-08-15T10:13:55Z</time>
      </trkpt>
      <trkpt lat="48.70527" lon="7.25511">
        <ele>456.004028</ele>
        <time>2012-08-15T10:14:07Z</time>
      </trkpt>
      <trkpt lat="48.70485" lon="7.25545">
        <ele>464.285278</ele>
        <time>2012-08-15T10:14:38Z</time>
      </trkpt>
      <trkpt lat="48.70462" lon="7.25549">
        <ele>468.308716</ele>
        <time>2012-08-15T10:14:45Z</time>
      </trkpt>
      <trkpt lat="48.70441" lon="7.25564">
        <ele>469.800903</ele>
        <time>2012-08-15T10:14:57Z</time>
      </trkpt>
      <trkpt lat="48.70369" lon="7.25559">
        <ele>464.074341</ele>
        <time>2012-08-15T10:15:19Z</time>
      </trkpt>
      <trkpt lat="48.70343" lon="7.25585">
        <ele>467.269653</ele>
        <time>2012-08-15T10:15:27Z</time>
      </trkpt>
      <trkpt lat="48.70333" lon="7.25615">
        <ele>469.011841</ele>
        <time>2012-08-15T10:15:31Z</time>
      </trkpt>
      <trkpt lat="48.7029" lon="7.25643">
        <ele>479.316528</ele>
        <time>2012-08-15T10:15:43Z</time>
      </trkpt>
      <trkpt lat="48.70251" lon="7.25692">
        <ele>481.714966</ele>
        <time>2012-08-15T10:16:00Z</time>
      </trkpt>
      <trkpt lat="48.70224" lon="7.25745">
        <ele>492.543091</ele>
        <time>2012-08-15T10:16:29Z</time>
      </trkpt>
      <trkpt lat="48.70203" lon="7.25758">
        <ele>496.472778</ele>
        <time>2012-08-15T10:16:44Z</time>
      </trkpt>
      <trkpt lat="48.70185" lon="7.25781">
        <ele>493.386841</ele>
        <time>2012-08-15T10:16:58Z</time>
      </trkpt>
      <trkpt lat="48.7014" lon="7.25793">
        <ele>482.613403</ele>
        <time>2012-08-15T10:17:26Z</time>
      </trkpt>
      <trkpt lat="48.70125" lon="7.2582">
        <ele>473.769653</ele>
        <time>2012-08-15T10:17:42Z</time>
      </trkpt>
      <trkpt lat="48.70121" lon="7.25853">
        <ele>468.839966</ele>
        <time>2012-08-15T10:17:53Z</time>
      </trkpt>
      <trkpt lat="48.7009" lon="7.25906">
        <ele>463.605591</ele>
        <time>2012-08-15T10:18:58Z</time>
      </trkpt>
      <trkpt lat="48.7009" lon="7.2612">
        <ele>481.543091</ele>
        <time>2012-08-15T10:20:21Z</time>
      </trkpt>
      <trkpt lat="48.70109" lon="7.26141">
        <ele>480.933716</ele>
        <time>2012-08-15T10:20:34Z</time>
      </trkpt>
      <trkpt lat="48.70132" lon="7.26141">
        <ele>476.511841</ele>
        <time>2012-08-15T10:20:49Z</time>
      </trkpt>
      <trkpt lat="48.70156" lon="7.26132">
        <ele>472.058716</ele>
        <time>2012-08-15T10:21:03Z</time>
      </trkpt>
      <trkpt lat="48.70195" lon="7.26171">
        <ele>475.589966</ele>
        <time>2012-08-15T10:21:24Z</time>
      </trkpt>
      <trkpt lat="48.70216" lon="7.26184">
        <ele>479.394653</ele>
        <time>2012-08-15T10:21:36Z</time>
      </trkpt>
      <trkpt lat="48.70238" lon="7.2619">
        <ele>483.332153</ele>
        <time>2012-08-15T10:21:48Z</time>
      </trkpt>
      <trkpt lat="48.70264" lon="7.26184">
        <ele>485.246216</ele>
        <time>2012-08-15T10:21:58Z</time>
      </trkpt>
      <trkpt lat="48.7028" lon="7.26153">
        <ele>485.980591</ele>
        <time>2012-08-15T10:22:07Z</time>
      </trkpt>
      <trkpt lat="48.70299" lon="7.2609">
        <ele>490.566528</ele>
        <time>2012-08-15T10:22:56Z</time>
      </trkpt>
      <trkpt lat="48.70328" lon="7.26033">
        <ele>491.582153</ele>
        <time>2012-08-15T10:23:07Z</time>
      </trkpt>
      <trkpt lat="48.7035" lon="7.26017">
        <ele>493.527466</ele>
        <time>2012-08-15T10:23:14Z</time>
      </trkpt>
      <trkpt lat="48.70403" lon="7.26022">
        <ele>502.714966</ele>
        <time>2012-08-15T10:23:23Z</time>
      </trkpt>
      <trkpt lat="48.70473" lon="7.26046">
        <ele>521.101807</ele>
        <time>2012-08-15T10:23:42Z</time>
      </trkpt>
      <trkpt lat="48.70528" lon="7.26055">
        <ele>536.539307</ele>
        <time>2012-08-15T10:23:55Z</time>
      </trkpt>
      <trkpt lat="48.70597" lon="7.26042">
        <ele>559.758057</ele>
        <time>2012-08-15T10:24:15Z</time>
      </trkpt>
      <trkpt lat="48.70616" lon="7.26029">
        <ele>570.179932</ele>
        <time>2012-08-15T10:24:20Z</time>
      </trkpt>
      <trkpt lat="48.70668" lon="7.26018">
        <ele>581.070557</ele>
        <time>2012-08-15T10:24:35Z</time>
      </trkpt>
      <trkpt lat="48.70708" lon="7.25971">
        <ele>579.851807</ele>
        <time>2012-08-15T10:24:46Z</time>
      </trkpt>
      <trkpt lat="48.70749" lon="7.25935">
        <ele>584.117432</ele>
        <time>2012-08-15T10:24:56Z</time>
      </trkpt>
      <trkpt lat="48.70768" lon="7.25907">
        <ele>585.648682</ele>
        <time>2012-08-15T10:25:01Z</time>
      </trkpt>
      <trkpt lat="48.70776" lon="7.25872">
        <ele>588.398682</ele>
        <time>2012-08-15T10:25:10Z</time>
      </trkpt>
      <trkpt lat="48.70794" lon="7.25857">
        <ele>598.804932</ele>
        <time>2012-08-15T10:25:23Z</time>
      </trkpt>
      <trkpt lat="48.70815" lon="7.25841">
        <ele>599.617432</ele>
        <time>2012-08-15T10:25:28Z</time>
      </trkpt>
      <trkpt lat="48.70837" lon="7.25841">
        <ele>603.726807</ele>
        <time>2012-08-15T10:25:35Z</time>
      </trkpt>
      <trkpt lat="48.70857" lon="7.25826">
        <ele>610.148682</ele>
        <time>2012-08-15T10:25:42Z</time>
      </trkpt>
      <trkpt lat="48.70903" lon="7.25844">
        <ele>617.773682</ele>
        <time>2012-08-15T10:25:53Z</time>
      </trkpt>
      <trkpt lat="48.70943" lon="7.25807">
        <ele>623.664307</ele>
        <time>2012-08-15T10:26:23Z</time>
      </trkpt>
      <trkpt lat="48.70956" lon="7.25741">
        <ele>615.336182</ele>
        <time>2012-08-15T10:26:36Z</time>
      </trkpt>
      <trkpt lat="48.70969" lon="7.25736">
        <ele>593.929932</ele>
        <time>2012-08-15T10:26:46Z</time>
      </trkpt>
      <trkpt lat="48.70983" lon="7.25719">
        <ele>579.070557</ele>
        <time>2012-08-15T10:26:55Z</time>
      </trkpt>
      <trkpt lat="48.70993" lon="7.25689">
        <ele>570.445557</ele>
        <time>2012-08-15T10:27:07Z</time>
      </trkpt>
      <trkpt lat="48.71024" lon="7.25666">
        <ele>535.664307</ele>
        <time>2012-08-15T10:27:18Z</time>
      </trkpt>
      <trkpt lat="48.71042" lon="7.2566">
        <ele>516.586182</ele>
        <time>2012-08-15T10:27:22Z</time>
      </trkpt>
      <trkpt lat="48.71055" lon="7.25644">
        <ele>500.097778</ele>
        <time>2012-08-15T10:27:27Z</time>
      </trkpt>
      <trkpt lat="48.71088" lon="7.25587">
        <ele>479.871216</ele>
        <time>2012-08-15T10:27:41Z</time>
      </trkpt>
      <trkpt lat="48.71099" lon="7.2555">
        <ele>473.105591</ele>
        <time>2012-08-15T10:27:47Z</time>
      </trkpt>
      <trkpt lat="48.71132" lon="7.25414">
        <ele>461.527466</ele>
        <time>2012-08-15T10:28:34Z</time>
      </trkpt>
      <trkpt lat="48.71131" lon="7.25376">
        <ele>463.050903</ele>
        <time>2012-08-15T10:28:41Z</time>
      </trkpt>
      <trkpt lat="48.71144" lon="7.25306">
        <ele>460.433716</ele>
        <time>2012-08-15T10:28:59Z</time>
      </trkpt>
      <trkpt lat="48.71143" lon="7.25272">
        <ele>460.855591</ele>
        <time>2012-08-15T10:29:04Z</time>
      </trkpt>
      <trkpt lat="48.71155" lon="7.252">
        <ele>449.191528</ele>
        <time>2012-08-15T10:29:18Z</time>
      </trkpt>
      <trkpt lat="48.71166" lon="7.2517">
        <ele>444.152466</ele>
        <time>2012-08-15T10:29:29Z</time>
      </trkpt>
      <trkpt lat="48.71167" lon="7.25102">
        <ele>431.996216</ele>
        <time>2012-08-15T10:29:53Z</time>
      </trkpt>
      <trkpt lat="48.71157" lon="7.25071">
        <ele>426.339966</ele>
        <time>2012-08-15T10:29:58Z</time>
      </trkpt>
      <trkpt lat="48.71176" lon="7.25059">
        <ele>415.300903</ele>
        <time>2012-08-15T10:30:29Z</time>
      </trkpt>
      <trkpt lat="48.71241" lon="7.25058">
        <ele>392.793091</ele>
        <time>2012-08-15T10:31:27Z</time>
      </trkpt>
      <trkpt lat="48.71328" lon="7.25005">
        <ele>393.504028</ele>
        <time>2012-08-15T10:32:01Z</time>
      </trkpt>
      <trkpt lat="48.71345" lon="7.24983">
        <ele>397.910278</ele>
        <time>2012-08-15T10:32:07Z</time>
      </trkpt>
      <trkpt lat="48.71355" lon="7.24953">
        <ele>399.199341</ele>
        <time>2012-08-15T10:32:32Z</time>
      </trkpt>
      <trkpt lat="48.71373" lon="7.24926">
        <ele>398.902466</ele>
        <time>2012-08-15T10:33:02Z</time>
      </trkpt>
      <trkpt lat="48.71384" lon="7.24895">
        <ele>399.222778</ele>
        <time>2012-08-15T10:33:09Z</time>
      </trkpt>
      <trkpt lat="48.71385" lon="7.24862">
        <ele>398.488403</ele>
        <time>2012-08-15T10:33:21Z</time>
      </trkpt>
      <trkpt lat="48.71375" lon="7.2483">
        <ele>393.066528</ele>
        <time>2012-08-15T10:34:10Z</time>
      </trkpt>
      <trkpt lat="48.71331" lon="7.24847">
        <ele>384.511841</ele>
        <time>2012-08-15T10:34:29Z</time>
      </trkpt>
      <trkpt lat="48.71355" lon="7.24833">
        <ele>382.629028</ele>
        <time>2012-08-15T10:35:07Z</time>
      </trkpt>
      <trkpt lat="48.71414" lon="7.24714">
        <ele>384.113403</ele>
        <time>2012-08-15T10:35:28Z</time>
      </trkpt>
      <trkpt lat="48.71505" lon="7.24635">
        <ele>403.652466</ele>
        <time>2012-08-15T10:35:48Z</time>
      </trkpt>
      <trkpt lat="48.71606" lon="7.24604">
        <ele>412.699341</ele>
        <time>2012-08-15T10:36:05Z</time>
      </trkpt>
      <trkpt lat="48.71651" lon="7.24613">
        <ele>424.175903</ele>
        <time>2012-08-15T10:37:11Z</time>
      </trkpt>
      <trkpt lat="48.7172" lon="7.24643">
        <ele>413.433716</ele>
        <time>2012-08-15T10:37:27Z</time>
      </trkpt>
      <trkpt lat="48.71767" lon="7.24681">
        <ele>409.004028</ele>
        <time>2012-08-15T10:37:37Z</time>
      </trkpt>
      <trkpt lat="48.71867" lon="7.24848">
        <ele>392.988403</ele>
        <time>2012-08-15T10:38:02Z</time>
      </trkpt>
      <trkpt lat="48.71893" lon="7.24853">
        <ele>386.293091</ele>
        <time>2012-08-15T10:38:07Z</time>
      </trkpt>
      <trkpt lat="48.71965" lon="7.24839">
        <ele>383.160278</ele>
        <time>2012-08-15T10:38:22Z</time>
      </trkpt>
      <trkpt lat="48.72138" lon="7.24768">
        <ele>350.160278</ele>
        <time>2012-08-15T10:38:55Z</time>
      </trkpt>
      <trkpt lat="48.72163" lon="7.2477">
        <ele>348.449341</ele>
        <time>2012-08-15T10:38:58Z</time>
      </trkpt>
      <trkpt lat="48.72316" lon="7.24821">
        <ele>326.957153</ele>
        <time>2012-08-15T10:39:20Z</time>
      </trkpt>
      <trkpt lat="48.72406" lon="7.24831">
        <ele>302.847778</ele>
        <time>2012-08-15T10:40:19Z</time>
      </trkpt>
      <trkpt lat="48.7247" lon="7.24787">
        <ele>311.410278</ele>
        <time>2012-08-15T10:41:26Z</time>
      </trkpt>
      <trkpt lat="48.72559" lon="7.24772">
        <ele>344.777466</ele>
        <time>2012-08-15T10:42:00Z</time>
      </trkpt>
      <trkpt lat="48.72627" lon="7.24778">
        <ele>359.074341</ele>
        <time>2012-08-15T10:42:49Z</time>
      </trkpt>
      <trkpt lat="48.72693" lon="7.24807">
        <ele>369.886841</ele>
        <time>2012-08-15T10:43:36Z</time>
      </trkpt>
      <trkpt lat="48.72707" lon="7.24836">
        <ele>372.199341</ele>
        <time>2012-08-15T10:43:55Z</time>
      </trkpt>
      <trkpt lat="48.72732" lon="7.24934">
        <ele>361.863403</ele>
        <time>2012-08-15T10:44:47Z</time>
      </trkpt>
      <trkpt lat="48.72729" lon="7.24971">
        <ele>358.933716</ele>
        <time>2012-08-15T10:45:01Z</time>
      </trkpt>
      <trkpt lat="48.72748" lon="7.25039">
        <ele>363.871216</ele>
        <time>2012-08-15T10:45:17Z</time>
      </trkpt>
      <trkpt lat="48.72799" lon="7.2516">
        <ele>377.449341</ele>
        <time>2012-08-15T10:46:08Z</time>
      </trkpt>
      <trkpt lat="48.72807" lon="7.25195">
        <ele>379.214966</ele>
        <time>2012-08-15T10:46:18Z</time>
      </trkpt>
      <trkpt lat="48.72777" lon="7.25146">
        <ele>391.808716</ele>
        <time>2012-08-15T10:47:14Z</time>
      </trkpt>
      <trkpt lat="48.72765" lon="7.25115">
        <ele>394.910278</ele>
        <time>2012-08-15T10:47:30Z</time>
      </trkpt>
      <trkpt lat="48.72745" lon="7.25099">
        <ele>392.722778</ele>
        <time>2012-08-15T10:47:40Z</time>
      </trkpt>
      <trkpt lat="48.72726" lon="7.25115">
        <ele>387.793091</ele>
        <time>2012-08-15T10:47:45Z</time>
      </trkpt>
      <trkpt lat="48.72752" lon="7.25096">
        <ele>382.785278</ele>
        <time>2012-08-15T10:47:56Z</time>
      </trkpt>
      <trkpt lat="48.72764" lon="7.25163">
        <ele>381.246216</ele>
        <time>2012-08-15T10:48:45Z</time>
      </trkpt>
      <trkpt lat="48.72785" lon="7.2522">
        <ele>397.644653</ele>
        <time>2012-08-15T10:49:14Z</time>
      </trkpt>
      <trkpt lat="48.72799" lon="7.25321">
        <ele>414.847778</ele>
        <time>2012-08-15T10:49:57Z</time>
      </trkpt>
      <trkpt lat="48.72798" lon="7.25357">
        <ele>416.605591</ele>
        <time>2012-08-15T10:50:10Z</time>
      </trkpt>
      <trkpt lat="48.72788" lon="7.25386">
        <ele>406.332153</ele>
        <time>2012-08-15T10:50:18Z</time>
      </trkpt>
      <trkpt lat="48.72799" lon="7.25418">
        <ele>405.339966</ele>
        <time>2012-08-15T10:50:32Z</time>
      </trkpt>
      <trkpt lat="48.72836" lon="7.25455">
        <ele>416.957153</ele>
        <time>2012-08-15T10:50:59Z</time>
      </trkpt>
      <trkpt lat="48.72816" lon="7.25468">
        <ele>407.800903</ele>
        <time>2012-08-15T10:51:19Z</time>
      </trkpt>
      <trkpt lat="48.72795" lon="7.25455">
        <ele>403.160278</ele>
        <time>2012-08-15T10:51:36Z</time>
      </trkpt>
      <trkpt lat="48.72803" lon="7.25416">
        <ele>358.230591</ele>
        <time>2012-08-15T10:52:07Z</time>
      </trkpt>
      <trkpt lat="48.72778" lon="7.25361">
        <ele>344.308716</ele>
        <time>2012-08-15T10:52:31Z</time>
      </trkpt>
      <trkpt lat="48.7274" lon="7.25319">
        <ele>336.168091</ele>
        <time>2012-08-15T10:52:54Z</time>
      </trkpt>
      <trkpt lat="48.72731" lon="7.25352">
        <ele>338.847778</ele>
        <time>2012-08-15T10:53:08Z</time>
      </trkpt>
      <trkpt lat="48.72762" lon="7.2545">
        <ele>360.808716</ele>
        <time>2012-08-15T10:53:32Z</time>
      </trkpt>
      <trkpt lat="48.72829" lon="7.25553">
        <ele>387.738403</ele>
        <time>2012-08-15T10:53:52Z</time>
      </trkpt>
      <trkpt lat="48.72853" lon="7.25559">
        <ele>391.496216</ele>
        <time>2012-08-15T10:53:56Z</time>
      </trkpt>
      <trkpt lat="48.72932" lon="7.2553">
        <ele>381.746216</ele>
        <time>2012-08-15T10:54:07Z</time>
      </trkpt>
      <trkpt lat="48.73006" lon="7.25526">
        <ele>376.027466</ele>
        <time>2012-08-15T10:54:27Z</time>
      </trkpt>
      <trkpt lat="48.73104" lon="7.25529">
        <ele>385.011841</ele>
        <time>2012-08-15T10:54:57Z</time>
      </trkpt>
      <trkpt lat="48.73169" lon="7.25558">
        <ele>374.699341</ele>
        <time>2012-08-15T10:55:21Z</time>
      </trkpt>
      <trkpt lat="48.73188" lon="7.25542">
        <ele>366.293091</ele>
        <time>2012-08-15T10:55:27Z</time>
      </trkpt>
      <trkpt lat="48.73221" lon="7.25455">
        <ele>334.129028</ele>
        <time>2012-08-15T10:55:41Z</time>
      </trkpt>
      <trkpt lat="48.7326" lon="7.2541">
        <ele>331.660278</ele>
        <time>2012-08-15T10:55:58Z</time>
      </trkpt>
      <trkpt lat="48.73283" lon="7.254">
        <ele>330.175903</ele>
        <time>2012-08-15T10:56:06Z</time>
      </trkpt>
      <trkpt lat="48.7324" lon="7.2543">
        <ele>326.777466</ele>
        <time>2012-08-15T11:06:11Z</time>
      </trkpt>
      <trkpt lat="48.73255" lon="7.25457">
        <ele>332.254028</ele>
        <time>2012-08-15T11:06:22Z</time>
      </trkpt>
      <trkpt lat="48.73251" lon="7.25485">
        <ele>346.433716</ele>
        <time>2012-08-15T11:06:39Z</time>
      </trkpt>
      <trkpt lat="48.7322" lon="7.25533">
        <ele>360.339966</ele>
        <time>2012-08-15T11:07:10Z</time>
      </trkpt>
      <trkpt lat="48.73159" lon="7.25575">
        <ele>365.464966</ele>
        <time>2012-08-15T11:08:20Z</time>
      </trkpt>
      <trkpt lat="48.73144" lon="7.25602">
        <ele>365.839966</ele>
        <time>2012-08-15T11:08:51Z</time>
      </trkpt>
      <trkpt lat="48.73122" lon="7.25618">
        <ele>366.082153</ele>
        <time>2012-08-15T11:09:09Z</time>
      </trkpt>
      <trkpt lat="48.73139" lon="7.25686">
        <ele>365.418091</ele>
        <time>2012-08-15T11:09:51Z</time>
      </trkpt>
      <trkpt lat="48.73136" lon="7.25765">
        <ele>367.597778</ele>
        <time>2012-08-15T11:10:08Z</time>
      </trkpt>
      <trkpt lat="48.73159" lon="7.25979">
        <ele>372.019653</ele>
        <time>2012-08-15T11:10:57Z</time>
      </trkpt>
      <trkpt lat="48.7318" lon="7.26042">
        <ele>371.097778</ele>
        <time>2012-08-15T11:11:21Z</time>
      </trkpt>
      <trkpt lat="48.73256" lon="7.26128">
        <ele>372.535278</ele>
        <time>2012-08-15T11:11:52Z</time>
      </trkpt>
      <trkpt lat="48.73302" lon="7.26211">
        <ele>363.746216</ele>
        <time>2012-08-15T11:12:12Z</time>
      </trkpt>
      <trkpt lat="48.73337" lon="7.26261">
        <ele>359.785278</ele>
        <time>2012-08-15T11:12:24Z</time>
      </trkpt>
      <trkpt lat="48.73364" lon="7.26324">
        <ele>374.027466</ele>
        <time>2012-08-15T11:12:35Z</time>
      </trkpt>
      <trkpt lat="48.73436" lon="7.26321">
        <ele>373.425903</ele>
        <time>2012-08-15T11:13:00Z</time>
      </trkpt>
      <trkpt lat="48.73461" lon="7.26333">
        <ele>369.644653</ele>
        <time>2012-08-15T11:13:07Z</time>
      </trkpt>
      <trkpt lat="48.73473" lon="7.26353">
        <ele>351.379028</ele>
        <time>2012-08-15T11:13:17Z</time>
      </trkpt>
      <trkpt lat="48.73478" lon="7.26387">
        <ele>350.699341</ele>
        <time>2012-08-15T11:13:28Z</time>
      </trkpt>
      <trkpt lat="48.73422" lon="7.26458">
        <ele>363.160278</ele>
        <time>2012-08-15T11:14:05Z</time>
      </trkpt>
      <trkpt lat="48.73405" lon="7.26487">
        <ele>362.660278</ele>
        <time>2012-08-15T11:14:13Z</time>
      </trkpt>
      <trkpt lat="48.73396" lon="7.26518">
        <ele>364.035278</ele>
        <time>2012-08-15T11:14:23Z</time>
      </trkpt>
      <trkpt lat="48.73426" lon="7.26594">
        <ele>374.050903</ele>
        <time>2012-08-15T11:14:36Z</time>
      </trkpt>
      <trkpt lat="48.73441" lon="7.26769">
        <ele>400.089966</ele>
        <time>2012-08-15T11:15:23Z</time>
      </trkpt>
      <trkpt lat="48.73466" lon="7.26822">
        <ele>422.519653</ele>
        <time>2012-08-15T11:15:46Z</time>
      </trkpt>
      <trkpt lat="48.73493" lon="7.26937">
        <ele>437.683716</ele>
        <time>2012-08-15T11:16:14Z</time>
      </trkpt>
      <trkpt lat="48.73514" lon="7.26959">
        <ele>416.363403</ele>
        <time>2012-08-15T11:16:41Z</time>
      </trkpt>
      <trkpt lat="48.73525" lon="7.26992">
        <ele>412.425903</ele>
        <time>2012-08-15T11:16:50Z</time>
      </trkpt>
      <trkpt lat="48.73541" lon="7.27013">
        <ele>393.168091</ele>
        <time>2012-08-15T11:16:53Z</time>
      </trkpt>
      <trkpt lat="48.73589" lon="7.27113">
        <ele>384.277466</ele>
        <time>2012-08-15T11:17:20Z</time>
      </trkpt>
      <trkpt lat="48.73595" lon="7.27011">
        <ele>357.121216</ele>
        <time>2012-08-15T11:17:55Z</time>
      </trkpt>
      <trkpt lat="48.73565" lon="7.26721">
        <ele>342.605591</ele>
        <time>2012-08-15T11:18:58Z</time>
      </trkpt>
      <trkpt lat="48.73574" lon="7.26686">
        <ele>344.527466</ele>
        <time>2012-08-15T11:19:06Z</time>
      </trkpt>
      <trkpt lat="48.73568" lon="7.2665">
        <ele>345.480591</ele>
        <time>2012-08-15T11:19:12Z</time>
      </trkpt>
      <trkpt lat="48.73584" lon="7.26617">
        <ele>343.933716</ele>
        <time>2012-08-15T11:19:18Z</time>
      </trkpt>
      <trkpt lat="48.73613" lon="7.26477">
        <ele>328.496216</ele>
        <time>2012-08-15T11:19:43Z</time>
      </trkpt>
      <trkpt lat="48.73609" lon="7.26401">
        <ele>325.925903</ele>
        <time>2012-08-15T11:19:53Z</time>
      </trkpt>
      <trkpt lat="48.73594" lon="7.26335">
        <ele>328.011841</ele>
        <time>2012-08-15T11:20:05Z</time>
      </trkpt>
      <trkpt lat="48.73583" lon="7.26303">
        <ele>328.980591</ele>
        <time>2012-08-15T11:20:12Z</time>
      </trkpt>
      <trkpt lat="48.73535" lon="7.26224">
        <ele>335.863403</ele>
        <time>2012-08-15T11:20:35Z</time>
      </trkpt>
      <trkpt lat="48.73472" lon="7.26176">
        <ele>334.222778</ele>
        <time>2012-08-15T11:21:00Z</time>
      </trkpt>
      <trkpt lat="48.73438" lon="7.26127">
        <ele>331.308716</ele>
        <time>2012-08-15T11:21:20Z</time>
      </trkpt>
      <trkpt lat="48.73417" lon="7.26109">
        <ele>328.222778</ele>
        <time>2012-08-15T11:21:28Z</time>
      </trkpt>
      <trkpt lat="48.73394" lon="7.26101">
        <ele>324.793091</ele>
        <time>2012-08-15T11:21:35Z</time>
      </trkpt>
      <trkpt lat="48.73333" lon="7.26051">
        <ele>306.957153</ele>
        <time>2012-08-15T11:22:04Z</time>
      </trkpt>
      <trkpt lat="48.73288" lon="7.26035">
        <ele>297.918091</ele>
        <time>2012-08-15T11:22:25Z</time>
      </trkpt>
      <trkpt lat="48.73272" lon="7.26012">
        <ele>303.379028</ele>
        <time>2012-08-15T11:22:41Z</time>
      </trkpt>
      <trkpt lat="48.73267" lon="7.25943">
        <ele>309.183716</ele>
        <time>2012-08-15T11:22:59Z</time>
      </trkpt>
      <trkpt lat="48.73275" lon="7.25803">
        <ele>299.410278</ele>
        <time>2012-08-15T11:23:28Z</time>
      </trkpt>
      <trkpt lat="48.73297" lon="7.257">
        <ele>299.722778</ele>
        <time>2012-08-15T11:23:55Z</time>
      </trkpt>
      <trkpt lat="48.73355" lon="7.25638">
        <ele>303.988403</ele>
        <time>2012-08-15T11:24:10Z</time>
      </trkpt>
      <trkpt lat="48.73365" lon="7.25602">
        <ele>307.129028</ele>
        <time>2012-08-15T11:24:16Z</time>
      </trkpt>
      <trkpt lat="48.7338" lon="7.25575">
        <ele>308.386841</ele>
        <time>2012-08-15T11:24:20Z</time>
      </trkpt>
      <trkpt lat="48.73404" lon="7.25554">
        <ele>309.582153</ele>
        <time>2012-08-15T11:24:24Z</time>
      </trkpt>
      <trkpt lat="48.73458" lon="7.25485">
        <ele>310.535278</ele>
        <time>2012-08-15T11:24:36Z</time>
      </trkpt>
      <trkpt lat="48.73477" lon="7.25457">
        <ele>306.691528</ele>
        <time>2012-08-15T11:24:41Z</time>
      </trkpt>
      <trkpt lat="48.73489" lon="7.25419">
        <ele>304.457153</ele>
        <time>2012-08-15T11:24:47Z</time>
      </trkpt>
      <trkpt lat="48.73495" lon="7.25311">
        <ele>289.543091</ele>
        <time>2012-08-15T11:25:09Z</time>
      </trkpt>
      <trkpt lat="48.73478" lon="7.25196">
        <ele>284.535278</ele>
        <time>2012-08-15T11:25:25Z</time>
      </trkpt>
      <trkpt lat="48.73503" lon="7.25136">
        <ele>275.582153</ele>
        <time>2012-08-15T11:25:42Z</time>
      </trkpt>
      <trkpt lat="48.7353" lon="7.25185">
        <ele>254.201233</ele>
        <time>2012-08-15T11:30:39Z</time>
      </trkpt>
      <trkpt lat="48.73513" lon="7.25169">
        <ele>240.552795</ele>
        <time>2012-08-15T11:33:27Z</time>
      </trkpt>
      <trkpt lat="48.73505" lon="7.25134">
        <ele>235.158264</ele>
        <time>2012-08-15T11:34:05Z</time>
      </trkpt>
      <trkpt lat="48.73514" lon="7.25099">
        <ele>238.06842</ele>
        <time>2012-08-15T11:34:20Z</time>
      </trkpt>
      <trkpt lat="48.73454" lon="7.24975">
        <ele>233.002014</ele>
        <time>2012-08-15T11:34:46Z</time>
      </trkpt>
      <trkpt lat="48.73413" lon="7.24932">
        <ele>226.259827</ele>
        <time>2012-08-15T11:34:58Z</time>
      </trkpt>
      <trkpt lat="48.73365" lon="7.24909">
        <ele>222.615295</ele>
        <time>2012-08-15T11:35:10Z</time>
      </trkpt>
      <trkpt lat="48.73342" lon="7.24908">
        <ele>220.78717</ele>
        <time>2012-08-15T11:35:16Z</time>
      </trkpt>
      <trkpt lat="48.73296" lon="7.24924">
        <ele>220.212952</ele>
        <time>2012-08-15T11:35:28Z</time>
      </trkpt>
      <trkpt lat="48.73272" lon="7.24922">
        <ele>221.314514</ele>
        <time>2012-08-15T11:35:37Z</time>
      </trkpt>
      <trkpt lat="48.73262" lon="7.24818">
        <ele>225.919983</ele>
        <time>2012-08-15T11:36:02Z</time>
      </trkpt>
      <trkpt lat="48.73262" lon="7.24879">
        <ele>248.955139</ele>
        <time>2012-08-15T11:37:05Z</time>
      </trkpt>
      <trkpt lat="48.73234" lon="7.24935">
        <ele>253.923889</ele>
        <time>2012-08-15T11:37:31Z</time>
      </trkpt>
      <trkpt lat="48.73145" lon="7.24974">
        <ele>244.306702</ele>
        <time>2012-08-15T11:38:57Z</time>
      </trkpt>
      <trkpt lat="48.73122" lon="7.24969">
        <ele>244.736389</ele>
        <time>2012-08-15T11:39:13Z</time>
      </trkpt>
      <trkpt lat="48.73091" lon="7.2487">
        <ele>247.115295</ele>
        <time>2012-08-15T11:39:50Z</time>
      </trkpt>
      <trkpt lat="48.73051" lon="7.24821">
        <ele>249.685608</ele>
        <time>2012-08-15T11:40:06Z</time>
      </trkpt>
      <trkpt lat="48.73042" lon="7.24788">
        <ele>252.361389</ele>
        <time>2012-08-15T11:40:19Z</time>
      </trkpt>
      <trkpt lat="48.73035" lon="7.24686">
        <ele>261.972778</ele>
        <time>2012-08-15T11:40:56Z</time>
      </trkpt>
      <trkpt lat="48.73007" lon="7.24558">
        <ele>284.082153</ele>
        <time>2012-08-15T11:41:39Z</time>
      </trkpt>
      <trkpt lat="48.72919" lon="7.24312">
        <ele>312.027466</ele>
        <time>2012-08-15T11:43:17Z</time>
      </trkpt>
      <trkpt lat="48.72906" lon="7.24246">
        <ele>322.058716</ele>
        <time>2012-08-15T11:43:37Z</time>
      </trkpt>
      <trkpt lat="48.72892" lon="7.24142">
        <ele>330.004028</ele>
        <time>2012-08-15T11:44:08Z</time>
      </trkpt>
      <trkpt lat="48.72894" lon="7.24072">
        <ele>340.300903</ele>
        <time>2012-08-15T11:44:34Z</time>
      </trkpt>
      <trkpt lat="48.72905" lon="7.23932">
        <ele>351.504028</ele>
        <time>2012-08-15T11:45:24Z</time>
      </trkpt>
      <trkpt lat="48.72915" lon="7.239">
        <ele>341.386841</ele>
        <time>2012-08-15T11:48:00Z</time>
      </trkpt>
      <trkpt lat="48.72928" lon="7.23722">
        <ele>336.800903</ele>
        <time>2012-08-15T11:49:04Z</time>
      </trkpt>
      <trkpt lat="48.72917" lon="7.23688">
        <ele>337.214966</ele>
        <time>2012-08-15T11:49:10Z</time>
      </trkpt>
      <trkpt lat="48.72903" lon="7.23509">
        <ele>344.058716</ele>
        <time>2012-08-15T11:49:49Z</time>
      </trkpt>
      <trkpt lat="48.7289" lon="7.23437">
        <ele>349.410278</ele>
        <time>2012-08-15T11:50:01Z</time>
      </trkpt>
      <trkpt lat="48.72897" lon="7.23365">
        <ele>355.363403</ele>
        <time>2012-08-15T11:50:14Z</time>
      </trkpt>
      <trkpt lat="48.7288" lon="7.23292">
        <ele>363.363403</ele>
        <time>2012-08-15T11:50:26Z</time>
      </trkpt>
      <trkpt lat="48.7289" lon="7.23248">
        <ele>360.464966</ele>
        <time>2012-08-15T11:50:30Z</time>
      </trkpt>
      <trkpt lat="48.72912" lon="7.23222">
        <ele>362.996216</ele>
        <time>2012-08-15T11:50:40Z</time>
      </trkpt>
      <trkpt lat="48.72963" lon="7.23219">
        <ele>358.644653</ele>
        <time>2012-08-15T11:50:55Z</time>
      </trkpt>
      <trkpt lat="48.72992" lon="7.23167">
        <ele>350.004028</ele>
        <time>2012-08-15T11:51:06Z</time>
      </trkpt>
      <trkpt lat="48.73004" lon="7.23099">
        <ele>359.464966</ele>
        <time>2012-08-15T11:51:18Z</time>
      </trkpt>
      <trkpt lat="48.72972" lon="7.23045">
        <ele>373.652466</ele>
        <time>2012-08-15T11:51:30Z</time>
      </trkpt>
      <trkpt lat="48.72974" lon="7.23004">
        <ele>374.527466</ele>
        <time>2012-08-15T11:51:35Z</time>
      </trkpt>
      <trkpt lat="48.72984" lon="7.22969">
        <ele>375.136841</ele>
        <time>2012-08-15T11:51:40Z</time>
      </trkpt>
      <trkpt lat="48.72986" lon="7.22898">
        <ele>373.589966</ele>
        <time>2012-08-15T11:51:55Z</time>
      </trkpt>
      <trkpt lat="48.7297" lon="7.22879">
        <ele>361.504028</ele>
        <time>2012-08-15T11:53:31Z</time>
      </trkpt>
      <trkpt lat="48.72948" lon="7.22886">
        <ele>357.089966</ele>
        <time>2012-08-15T11:53:47Z</time>
      </trkpt>
      <trkpt lat="48.72908" lon="7.22789">
        <ele>348.480591</ele>
        <time>2012-08-15T11:54:43Z</time>
      </trkpt>
      <trkpt lat="48.72902" lon="7.22758">
        <ele>355.832153</ele>
        <time>2012-08-15T11:54:57Z</time>
      </trkpt>
      <trkpt lat="48.72903" lon="7.22724">
        <ele>354.277466</ele>
        <time>2012-08-15T11:55:39Z</time>
      </trkpt>
      <trkpt lat="48.72874" lon="7.22723">
        <ele>344.300903</ele>
        <time>2012-08-15T11:56:02Z</time>
      </trkpt>
      <trkpt lat="48.72852" lon="7.22733">
        <ele>345.550903</ele>
        <time>2012-08-15T11:56:15Z</time>
      </trkpt>
      <trkpt lat="48.7282" lon="7.22798">
        <ele>360.746216</ele>
        <time>2012-08-15T11:56:31Z</time>
      </trkpt>
      <trkpt lat="48.72828" lon="7.22827">
        <ele>370.472778</ele>
        <time>2012-08-15T11:56:46Z</time>
      </trkpt>
      <trkpt lat="48.72807" lon="7.22841">
        <ele>375.949341</ele>
        <time>2012-08-15T11:58:27Z</time>
      </trkpt>
      <trkpt lat="48.72812" lon="7.22772">
        <ele>380.621216</ele>
        <time>2012-08-15T11:59:42Z</time>
      </trkpt>
      <trkpt lat="48.72791" lon="7.22712">
        <ele>389.230591</ele>
        <time>2012-08-15T12:00:17Z</time>
      </trkpt>
      <trkpt lat="48.7277" lon="7.2269">
        <ele>394.043091</ele>
        <time>2012-08-15T12:00:34Z</time>
      </trkpt>
      <trkpt lat="48.72757" lon="7.22663">
        <ele>399.371216</ele>
        <time>2012-08-15T12:00:53Z</time>
      </trkpt>
      <trkpt lat="48.72715" lon="7.22751">
        <ele>405.410278</ele>
        <time>2012-08-15T12:01:27Z</time>
      </trkpt>
      <trkpt lat="48.72693" lon="7.22768">
        <ele>405.144653</ele>
        <time>2012-08-15T12:01:34Z</time>
      </trkpt>
      <trkpt lat="48.72669" lon="7.22767">
        <ele>404.847778</ele>
        <time>2012-08-15T12:01:38Z</time>
      </trkpt>
      <trkpt lat="48.72646" lon="7.22764">
        <ele>405.652466</ele>
        <time>2012-08-15T12:01:43Z</time>
      </trkpt>
      <trkpt lat="48.72628" lon="7.22742">
        <ele>406.777466</ele>
        <time>2012-08-15T12:01:56Z</time>
      </trkpt>
      <trkpt lat="48.72583" lon="7.22716">
        <ele>409.855591</ele>
        <time>2012-08-15T12:02:09Z</time>
      </trkpt>
      <trkpt lat="48.72549" lon="7.22668">
        <ele>413.730591</ele>
        <time>2012-08-15T12:02:26Z</time>
      </trkpt>
      <trkpt lat="48.72511" lon="7.22625">
        <ele>406.808716</ele>
        <time>2012-08-15T12:02:50Z</time>
      </trkpt>
      <trkpt lat="48.72493" lon="7.22615">
        <ele>391.816528</ele>
        <time>2012-08-15T12:03:04Z</time>
      </trkpt>
      <trkpt lat="48.72474" lon="7.22615">
        <ele>377.433716</ele>
        <time>2012-08-15T12:03:31Z</time>
      </trkpt>
      <trkpt lat="48.72435" lon="7.22655">
        <ele>357.972778</ele>
        <time>2012-08-15T12:03:42Z</time>
      </trkpt>
      <trkpt lat="48.72389" lon="7.22675">
        <ele>352.027466</ele>
        <time>2012-08-15T12:03:49Z</time>
      </trkpt>
      <trkpt lat="48.72335" lon="7.22653">
        <ele>343.918091</ele>
        <time>2012-08-15T12:03:56Z</time>
      </trkpt>
      <trkpt lat="48.72292" lon="7.22618">
        <ele>338.121216</ele>
        <time>2012-08-15T12:04:05Z</time>
      </trkpt>
      <trkpt lat="48.72247" lon="7.22597">
        <ele>333.910278</ele>
        <time>2012-08-15T12:04:15Z</time>
      </trkpt>
      <trkpt lat="48.72224" lon="7.22579">
        <ele>332.300903</ele>
        <time>2012-08-15T12:04:21Z</time>
      </trkpt>
      <trkpt lat="48.7219" lon="7.22532">
        <ele>329.972778</ele>
        <time>2012-08-15T12:04:39Z</time>
      </trkpt>
      <trkpt lat="48.72141" lon="7.22332">
        <ele>346.496216</ele>
        <time>2012-08-15T12:05:43Z</time>
      </trkpt>
      <trkpt lat="48.72149" lon="7.223">
        <ele>350.347778</ele>
        <time>2012-08-15T12:05:51Z</time>
      </trkpt>
      <trkpt lat="48.72133" lon="7.22237">
        <ele>367.629028</ele>
        <time>2012-08-15T12:06:19Z</time>
      </trkpt>
      <trkpt lat="48.72139" lon="7.22205">
        <ele>374.394653</ele>
        <time>2012-08-15T12:06:31Z</time>
      </trkpt>
      <trkpt lat="48.72137" lon="7.2217">
        <ele>375.121216</ele>
        <time>2012-08-15T12:06:45Z</time>
      </trkpt>
      <trkpt lat="48.72144" lon="7.22137">
        <ele>375.855591</ele>
        <time>2012-08-15T12:06:54Z</time>
      </trkpt>
      <trkpt lat="48.72147" lon="7.22029">
        <ele>361.214966</ele>
        <time>2012-08-15T12:07:14Z</time>
      </trkpt>
      <trkpt lat="48.72161" lon="7.21918">
        <ele>354.894653</ele>
        <time>2012-08-15T12:07:26Z</time>
      </trkpt>
      <trkpt lat="48.72159" lon="7.2177">
        <ele>353.558716</ele>
        <time>2012-08-15T12:07:47Z</time>
      </trkpt>
      <trkpt lat="48.72213" lon="7.2165">
        <ele>361.722778</ele>
        <time>2012-08-15T12:08:17Z</time>
      </trkpt>
      <trkpt lat="48.7221" lon="7.21616">
        <ele>354.652466</ele>
        <time>2012-08-15T12:08:27Z</time>
      </trkpt>
      <trkpt lat="48.72222" lon="7.21588">
        <ele>347.300903</ele>
        <time>2012-08-15T12:08:39Z</time>
      </trkpt>
      <trkpt lat="48.72257" lon="7.2154">
        <ele>344.089966</ele>
        <time>2012-08-15T12:09:10Z</time>
      </trkpt>
      <trkpt lat="48.72296" lon="7.21497">
        <ele>349.011841</ele>
        <time>2012-08-15T12:09:28Z</time>
      </trkpt>
      <trkpt lat="48.7234" lon="7.21473">
        <ele>351.980591</ele>
        <time>2012-08-15T12:10:02Z</time>
      </trkpt>
      <trkpt lat="48.72387" lon="7.2148">
        <ele>354.191528</ele>
        <time>2012-08-15T12:10:22Z</time>
      </trkpt>
      <trkpt lat="48.72429" lon="7.21515">
        <ele>364.363403</ele>
        <time>2012-08-15T12:10:42Z</time>
      </trkpt>
      <trkpt lat="48.72519" lon="7.21557">
        <ele>337.597778</ele>
        <time>2012-08-15T12:11:03Z</time>
      </trkpt>
      <trkpt lat="48.72597" lon="7.21576">
        <ele>331.769653</ele>
        <time>2012-08-15T12:11:18Z</time>
      </trkpt>
      <trkpt lat="48.72623" lon="7.21573">
        <ele>331.886841</ele>
        <time>2012-08-15T12:11:22Z</time>
      </trkpt>
      <trkpt lat="48.72646" lon="7.21549">
        <ele>327.129028</ele>
        <time>2012-08-15T12:11:26Z</time>
      </trkpt>
      <trkpt lat="48.72659" lon="7.21522">
        <ele>325.121216</ele>
        <time>2012-08-15T12:11:30Z</time>
      </trkpt>
      <trkpt lat="48.72665" lon="7.21486">
        <ele>324.355591</ele>
        <time>2012-08-15T12:11:35Z</time>
      </trkpt>
      <trkpt lat="48.72656" lon="7.21455">
        <ele>327.050903</ele>
        <time>2012-08-15T12:11:46Z</time>
      </trkpt>
      <trkpt lat="48.72631" lon="7.21461">
        <ele>327.597778</ele>
        <time>2012-08-15T12:12:31Z</time>
      </trkpt>
      <trkpt lat="48.7258" lon="7.21445">
        <ele>320.269653</ele>
        <time>2012-08-15T12:12:48Z</time>
      </trkpt>
      <trkpt lat="48.72562" lon="7.21426">
        <ele>317.996216</ele>
        <time>2012-08-15T12:12:52Z</time>
      </trkpt>
      <trkpt lat="48.72583" lon="7.21363">
        <ele>315.910278</ele>
        <time>2012-08-15T12:13:21Z</time>
      </trkpt>
      <trkpt lat="48.7258" lon="7.21325">
        <ele>314.582153</ele>
        <time>2012-08-15T12:13:29Z</time>
      </trkpt>
      <trkpt lat="48.72589" lon="7.2129">
        <ele>311.300903</ele>
        <time>2012-08-15T12:13:35Z</time>
      </trkpt>
      <trkpt lat="48.72604" lon="7.21262">
        <ele>312.949341</ele>
        <time>2012-08-15T12:13:42Z</time>
      </trkpt>
      <trkpt lat="48.72605" lon="7.21231">
        <ele>322.496216</ele>
        <time>2012-08-15T12:13:58Z</time>
      </trkpt>
      <trkpt lat="48.72588" lon="7.21209">
        <ele>325.839966</ele>
        <time>2012-08-15T12:15:20Z</time>
      </trkpt>
      <trkpt lat="48.72542" lon="7.21226">
        <ele>311.332153</ele>
        <time>2012-08-15T12:16:08Z</time>
      </trkpt>
      <trkpt lat="48.72412" lon="7.21186">
        <ele>326.386841</ele>
        <time>2012-08-15T12:16:37Z</time>
      </trkpt>
      <trkpt lat="48.72365" lon="7.21179">
        <ele>337.222778</ele>
        <time>2012-08-15T12:17:05Z</time>
      </trkpt>
      <trkpt lat="48.72314" lon="7.21185">
        <ele>334.785278</ele>
        <time>2012-08-15T12:17:20Z</time>
      </trkpt>
      <trkpt lat="48.72294" lon="7.21168">
        <ele>336.168091</ele>
        <time>2012-08-15T12:17:27Z</time>
      </trkpt>
      <trkpt lat="48.72245" lon="7.21243">
        <ele>348.582153</ele>
        <time>2012-08-15T12:18:17Z</time>
      </trkpt>
      <trkpt lat="48.72222" lon="7.21249">
        <ele>349.566528</ele>
        <time>2012-08-15T12:18:25Z</time>
      </trkpt>
      <trkpt lat="48.72176" lon="7.21285">
        <ele>349.871216</ele>
        <time>2012-08-15T12:18:45Z</time>
      </trkpt>
      <trkpt lat="48.72179" lon="7.21303">
        <ele>328.035278</ele>
        <time>2012-08-15T12:18:50Z</time>
      </trkpt>
      <trkpt lat="48.72169" lon="7.21335">
        <ele>322.738403</ele>
        <time>2012-08-15T12:18:56Z</time>
      </trkpt>
      <trkpt lat="48.72137" lon="7.21385">
        <ele>320.879028</ele>
        <time>2012-08-15T12:19:19Z</time>
      </trkpt>
      <trkpt lat="48.72133" lon="7.21453">
        <ele>326.519653</ele>
        <time>2012-08-15T12:21:20Z</time>
      </trkpt>
      <trkpt lat="48.72123" lon="7.21488">
        <ele>328.191528</ele>
        <time>2012-08-15T12:21:26Z</time>
      </trkpt>
      <trkpt lat="48.72037" lon="7.21593">
        <ele>334.589966</ele>
        <time>2012-08-15T12:21:41Z</time>
      </trkpt>
      <trkpt lat="48.72022" lon="7.21626">
        <ele>339.207153</ele>
        <time>2012-08-15T12:22:01Z</time>
      </trkpt>
      <trkpt lat="48.72034" lon="7.21659">
        <ele>344.097778</ele>
        <time>2012-08-15T12:22:17Z</time>
      </trkpt>
      <trkpt lat="48.72016" lon="7.21687">
        <ele>353.121216</ele>
        <time>2012-08-15T12:22:33Z</time>
      </trkpt>
      <trkpt lat="48.71952" lon="7.21666">
        <ele>318.566528</ele>
        <time>2012-08-15T12:24:48Z</time>
      </trkpt>
      <trkpt lat="48.71931" lon="7.21676">
        <ele>312.871216</ele>
        <time>2012-08-15T12:25:01Z</time>
      </trkpt>
      <trkpt lat="48.7182" lon="7.21644">
        <ele>284.496216</ele>
        <time>2012-08-15T12:26:30Z</time>
      </trkpt>
      <trkpt lat="48.71804" lon="7.21632">
        <ele>267.644653</ele>
        <time>2012-08-15T12:27:28Z</time>
      </trkpt>
      <trkpt lat="48.71823" lon="7.21614">
        <ele>269.839966</ele>
        <time>2012-08-15T12:28:18Z</time>
      </trkpt>
      <trkpt lat="48.71808" lon="7.2159">
        <ele>272.371216</ele>
        <time>2012-08-15T12:29:01Z</time>
      </trkpt>
      <trkpt lat="48.71786" lon="7.21583">
        <ele>274.050903</ele>
        <time>2012-08-15T12:29:26Z</time>
      </trkpt>
      <trkpt lat="48.71821" lon="7.2154">
        <ele>282.043091</ele>
        <time>2012-08-15T12:31:12Z</time>
      </trkpt>
      <trkpt lat="48.71844" lon="7.21543">
        <ele>285.504028</ele>
        <time>2012-08-15T12:31:35Z</time>
      </trkpt>
      <trkpt lat="48.71882" lon="7.21506">
        <ele>292.933716</ele>
        <time>2012-08-15T12:32:33Z</time>
      </trkpt>
      <trkpt lat="48.71899" lon="7.21486">
        <ele>302.199341</ele>
        <time>2012-08-15T12:33:34Z</time>
      </trkpt>
      <trkpt lat="48.71909" lon="7.21455">
        <ele>305.941528</ele>
        <time>2012-08-15T12:33:52Z</time>
      </trkpt>
      <trkpt lat="48.71887" lon="7.2146">
        <ele>309.683716</ele>
        <time>2012-08-15T12:34:52Z</time>
      </trkpt>
      <trkpt lat="48.71865" lon="7.21475">
        <ele>312.355591</ele>
        <time>2012-08-15T12:35:10Z</time>
      </trkpt>
      <trkpt lat="48.71795" lon="7.21478">
        <ele>319.574341</ele>
        <time>2012-08-15T12:35:48Z</time>
      </trkpt>
      <trkpt lat="48.71778" lon="7.21503">
        <ele>323.566528</ele>
        <time>2012-08-15T12:35:58Z</time>
      </trkpt>
      <trkpt lat="48.71755" lon="7.21516">
        <ele>326.910278</ele>
        <time>2012-08-15T12:36:05Z</time>
      </trkpt>
      <trkpt lat="48.7172" lon="7.21565">
        <ele>338.097778</ele>
        <time>2012-08-15T12:36:22Z</time>
      </trkpt>
      <trkpt lat="48.71659" lon="7.21625">
        <ele>348.308716</ele>
        <time>2012-08-15T12:36:38Z</time>
      </trkpt>
      <trkpt lat="48.71635" lon="7.21634">
        <ele>350.496216</ele>
        <time>2012-08-15T12:36:43Z</time>
      </trkpt>
      <trkpt lat="48.71612" lon="7.2162">
        <ele>353.441528</ele>
        <time>2012-08-15T12:36:49Z</time>
      </trkpt>
      <trkpt lat="48.7159" lon="7.21604">
        <ele>349.871216</ele>
        <time>2012-08-15T12:36:54Z</time>
      </trkpt>
      <trkpt lat="48.71489" lon="7.21495">
        <ele>357.558716</ele>
        <time>2012-08-15T12:37:26Z</time>
      </trkpt>
      <trkpt lat="48.71471" lon="7.21468">
        <ele>364.011841</ele>
        <time>2012-08-15T12:37:33Z</time>
      </trkpt>
      <trkpt lat="48.71459" lon="7.21435">
        <ele>366.496216</ele>
        <time>2012-08-15T12:37:40Z</time>
      </trkpt>
      <trkpt lat="48.71395" lon="7.21326">
        <ele>371.183716</ele>
        <time>2012-08-15T12:38:09Z</time>
      </trkpt>
      <trkpt lat="48.71347" lon="7.21203">
        <ele>394.293091</ele>
        <time>2012-08-15T12:38:44Z</time>
      </trkpt>
      <trkpt lat="48.71327" lon="7.21185">
        <ele>399.183716</ele>
        <time>2012-08-15T12:38:55Z</time>
      </trkpt>
      <trkpt lat="48.71302" lon="7.21186">
        <ele>402.425903</ele>
        <time>2012-08-15T12:39:03Z</time>
      </trkpt>
      <trkpt lat="48.71281" lon="7.2117">
        <ele>402.160278</ele>
        <time>2012-08-15T12:39:17Z</time>
      </trkpt>
      <trkpt lat="48.71258" lon="7.21181">
        <ele>402.113403</ele>
        <time>2012-08-15T12:39:33Z</time>
      </trkpt>
      <trkpt lat="48.71234" lon="7.2124">
        <ele>411.691528</ele>
        <time>2012-08-15T12:39:47Z</time>
      </trkpt>
      <trkpt lat="48.7121" lon="7.21247">
        <ele>412.793091</ele>
        <time>2012-08-15T12:39:57Z</time>
      </trkpt>
      <trkpt lat="48.71164" lon="7.21235">
        <ele>407.597778</ele>
        <time>2012-08-15T12:40:16Z</time>
      </trkpt>
      <trkpt lat="48.71103" lon="7.21291">
        <ele>406.636841</ele>
        <time>2012-08-15T12:40:59Z</time>
      </trkpt>
      <trkpt lat="48.71052" lon="7.213">
        <ele>404.418091</ele>
        <time>2012-08-15T12:42:02Z</time>
      </trkpt>
      <trkpt lat="48.7103" lon="7.21296">
        <ele>399.269653</ele>
        <time>2012-08-15T12:42:11Z</time>
      </trkpt>
      <trkpt lat="48.71007" lon="7.21301">
        <ele>395.089966</ele>
        <time>2012-08-15T12:42:24Z</time>
      </trkpt>
      <trkpt lat="48.70995" lon="7.21333">
        <ele>391.214966</ele>
        <time>2012-08-15T12:42:31Z</time>
      </trkpt>
      <trkpt lat="48.71003" lon="7.21361">
        <ele>378.113403</ele>
        <time>2012-08-15T12:42:51Z</time>
      </trkpt>
      <trkpt lat="48.71013" lon="7.21387">
        <ele>362.832153</ele>
        <time>2012-08-15T12:43:06Z</time>
      </trkpt>
      <trkpt lat="48.71067" lon="7.21451">
        <ele>341.808716</ele>
        <time>2012-08-15T12:43:50Z</time>
      </trkpt>
      <trkpt lat="48.71043" lon="7.21509">
        <ele>328.668091</ele>
        <time>2012-08-15T12:44:26Z</time>
      </trkpt>
      <trkpt lat="48.70967" lon="7.21524">
        <ele>321.129028</ele>
        <time>2012-08-15T12:44:41Z</time>
      </trkpt>
      <trkpt lat="48.70945" lon="7.21511">
        <ele>319.199341</ele>
        <time>2012-08-15T12:44:46Z</time>
      </trkpt>
      <trkpt lat="48.70914" lon="7.21457">
        <ele>317.425903</ele>
        <time>2012-08-15T12:45:00Z</time>
      </trkpt>
      <trkpt lat="48.70897" lon="7.2139">
        <ele>284.097778</ele>
        <time>2012-08-15T12:51:41Z</time>
      </trkpt>
      <trkpt lat="48.70885" lon="7.21414">
        <ele>270.285278</ele>
        <time>2012-08-15T12:53:08Z</time>
      </trkpt>
      <trkpt lat="48.70905" lon="7.21478">
        <ele>273.629028</ele>
        <time>2012-08-15T12:53:26Z</time>
      </trkpt>
      <trkpt lat="48.70901" lon="7.21548">
        <ele>286.652466</ele>
        <time>2012-08-15T12:53:45Z</time>
      </trkpt>
      <trkpt lat="48.70921" lon="7.2156">
        <ele>295.535278</ele>
        <time>2012-08-15T12:54:37Z</time>
      </trkpt>
      <trkpt lat="48.70909" lon="7.21556">
        <ele>316.777466</ele>
        <time>2012-08-15T12:55:37Z</time>
      </trkpt>
      <trkpt lat="48.70864" lon="7.21576">
        <ele>320.136841</ele>
        <time>2012-08-15T12:56:07Z</time>
      </trkpt>
      <trkpt lat="48.70844" lon="7.21592">
        <ele>320.699341</ele>
        <time>2012-08-15T12:56:18Z</time>
      </trkpt>
      <trkpt lat="48.70798" lon="7.21605">
        <ele>321.910278</ele>
        <time>2012-08-15T12:56:46Z</time>
      </trkpt>
      <trkpt lat="48.70752" lon="7.21599">
        <ele>321.144653</ele>
        <time>2012-08-15T12:57:04Z</time>
      </trkpt>
      <trkpt lat="48.70705" lon="7.21609">
        <ele>321.207153</ele>
        <time>2012-08-15T12:57:39Z</time>
      </trkpt>
      <trkpt lat="48.70658" lon="7.21608">
        <ele>321.230591</ele>
        <time>2012-08-15T12:58:04Z</time>
      </trkpt>
      <trkpt lat="48.70558" lon="7.21622">
        <ele>323.004028</ele>
        <time>2012-08-15T12:58:34Z</time>
      </trkpt>
      <trkpt lat="48.70488" lon="7.21649">
        <ele>332.089966</ele>
        <time>2012-08-15T12:58:52Z</time>
      </trkpt>
      <trkpt lat="48.70438" lon="7.21646">
        <ele>338.636841</ele>
        <time>2012-08-15T12:59:01Z</time>
      </trkpt>
      <trkpt lat="48.70394" lon="7.21675">
        <ele>340.918091</ele>
        <time>2012-08-15T12:59:12Z</time>
      </trkpt>
      <trkpt lat="48.70353" lon="7.21719">
        <ele>346.199341</ele>
        <time>2012-08-15T12:59:23Z</time>
      </trkpt>
      <trkpt lat="48.70342" lon="7.21747">
        <ele>353.847778</ele>
        <time>2012-08-15T12:59:50Z</time>
      </trkpt>
      <trkpt lat="48.70375" lon="7.21694">
        <ele>351.004028</ele>
        <time>2012-08-15T13:01:18Z</time>
      </trkpt>
      <trkpt lat="48.7038" lon="7.21658">
        <ele>353.699341</ele>
        <time>2012-08-15T13:01:23Z</time>
      </trkpt>
      <trkpt lat="48.70399" lon="7.21635">
        <ele>357.222778</ele>
        <time>2012-08-15T13:01:29Z</time>
      </trkpt>
      <trkpt lat="48.70434" lon="7.21575">
        <ele>361.480591</ele>
        <time>2012-08-15T13:01:39Z</time>
      </trkpt>
      <trkpt lat="48.70512" lon="7.21497">
        <ele>361.371216</ele>
        <time>2012-08-15T13:01:44Z</time>
      </trkpt>
      <trkpt lat="48.70467" lon="7.21508">
        <ele>352.652466</ele>
        <time>2012-08-15T13:02:09Z</time>
      </trkpt>
      <trkpt lat="48.70448" lon="7.21522">
        <ele>343.214966</ele>
        <time>2012-08-15T13:02:13Z</time>
      </trkpt>
      <trkpt lat="48.70404" lon="7.21511">
        <ele>333.746216</ele>
        <time>2012-08-15T13:02:25Z</time>
      </trkpt>
      <trkpt lat="48.70366" lon="7.21487">
        <ele>310.058716</ele>
        <time>2012-08-15T13:02:27Z</time>
      </trkpt>
      <trkpt lat="48.70336" lon="7.2148">
        <ele>310.160278</ele>
        <time>2012-08-15T13:02:30Z</time>
      </trkpt>
      <trkpt lat="48.70321" lon="7.21465">
        <ele>290.339966</ele>
        <time>2012-08-15T13:02:34Z</time>
      </trkpt>
      <trkpt lat="48.70287" lon="7.21419">
        <ele>278.754028</ele>
        <time>2012-08-15T13:02:49Z</time>
      </trkpt>
      <trkpt lat="48.70254" lon="7.21327">
        <ele>277.816528</ele>
        <time>2012-08-15T13:03:10Z</time>
      </trkpt>
      <trkpt lat="48.70204" lon="7.21242">
        <ele>277.808716</ele>
        <time>2012-08-15T13:03:31Z</time>
      </trkpt>
      <trkpt lat="48.70161" lon="7.21205">
        <ele>282.168091</ele>
        <time>2012-08-15T13:03:51Z</time>
      </trkpt>
      <trkpt lat="48.70127" lon="7.21159">
        <ele>285.027466</ele>
        <time>2012-08-15T13:04:12Z</time>
      </trkpt>
      <trkpt lat="48.70107" lon="7.21096">
        <ele>285.504028</ele>
        <time>2012-08-15T13:04:33Z</time>
      </trkpt>
      <trkpt lat="48.70079" lon="7.21038">
        <ele>286.379028</ele>
        <time>2012-08-15T13:04:53Z</time>
      </trkpt>
      <trkpt lat="48.70057" lon="7.21017">
        <ele>286.675903</ele>
        <time>2012-08-15T13:05:00Z</time>
      </trkpt>
      <trkpt lat="48.70002" lon="7.20939">
        <ele>290.285278</ele>
        <time>2012-08-15T13:05:20Z</time>
      </trkpt>
      <trkpt lat="48.69968" lon="7.20906">
        <ele>293.199341</ele>
        <time>2012-08-15T13:05:24Z</time>
      </trkpt>
      <trkpt lat="48.69983" lon="7.20879">
        <ele>294.347778</ele>
        <time>2012-08-15T13:05:30Z</time>
      </trkpt>
      <trkpt lat="48.69964" lon="7.20855">
        <ele>295.105591</ele>
        <time>2012-08-15T13:05:37Z</time>
      </trkpt>
      <trkpt lat="48.69956" lon="7.20786">
        <ele>303.261841</ele>
        <time>2012-08-15T13:06:03Z</time>
      </trkpt>
      <trkpt lat="48.69931" lon="7.20785">
        <ele>306.808716</ele>
        <time>2012-08-15T13:06:14Z</time>
      </trkpt>
      <trkpt lat="48.69799" lon="7.20694">
        <ele>310.582153</ele>
        <time>2012-08-15T13:06:22Z</time>
      </trkpt>
      <trkpt lat="48.69781" lon="7.20666">
        <ele>313.136841</ele>
        <time>2012-08-15T13:06:25Z</time>
      </trkpt>
      <trkpt lat="48.69759" lon="7.20655">
        <ele>315.144653</ele>
        <time>2012-08-15T13:06:30Z</time>
      </trkpt>
      <trkpt lat="48.69733" lon="7.20663">
        <ele>319.652466</ele>
        <time>2012-08-15T13:06:48Z</time>
      </trkpt>
      <trkpt lat="48.69716" lon="7.20636">
        <ele>320.761841</ele>
        <time>2012-08-15T13:07:21Z</time>
      </trkpt>
      <trkpt lat="48.69472" lon="7.2044">
        <ele>333.339966</ele>
        <time>2012-08-15T13:07:59Z</time>
      </trkpt>
      <trkpt lat="48.69445" lon="7.20384">
        <ele>342.730591</ele>
        <time>2012-08-15T13:08:12Z</time>
      </trkpt>
      <trkpt lat="48.69425" lon="7.20365">
        <ele>348.300903</ele>
        <time>2012-08-15T13:08:21Z</time>
      </trkpt>
      <trkpt lat="48.69407" lon="7.20359">
        <ele>363.480591</ele>
        <time>2012-08-15T13:08:41Z</time>
      </trkpt>
      <trkpt lat="48.69385" lon="7.20342">
        <ele>361.246216</ele>
        <time>2012-08-15T13:08:52Z</time>
      </trkpt>
      <trkpt lat="48.69359" lon="7.20285">
        <ele>361.996216</ele>
        <time>2012-08-15T13:09:17Z</time>
      </trkpt>
      <trkpt lat="48.693" lon="7.20259">
        <ele>346.050903</ele>
        <time>2012-08-15T13:09:23Z</time>
      </trkpt>
      <trkpt lat="48.69268" lon="7.20206">
        <ele>339.855591</ele>
        <time>2012-08-15T13:09:36Z</time>
      </trkpt>
      <trkpt lat="48.69246" lon="7.20195">
        <ele>339.949341</ele>
        <time>2012-08-15T13:09:41Z</time>
      </trkpt>
      <trkpt lat="48.6923" lon="7.20173">
        <ele>348.879028</ele>
        <time>2012-08-15T13:10:03Z</time>
      </trkpt>
      <trkpt lat="48.69205" lon="7.20158">
        <ele>352.121216</ele>
        <time>2012-08-15T13:10:12Z</time>
      </trkpt>
      <trkpt lat="48.69141" lon="7.20086">
        <ele>361.652466</ele>
        <time>2012-08-15T13:10:31Z</time>
      </trkpt>
      <trkpt lat="48.6912" lon="7.20048">
        <ele>364.425903</ele>
        <time>2012-08-15T13:10:34Z</time>
      </trkpt>
      <trkpt lat="48.69088" lon="7.2002">
        <ele>367.160278</ele>
        <time>2012-08-15T13:10:38Z</time>
      </trkpt>
      <trkpt lat="48.69073" lon="7.19996">
        <ele>371.433716</ele>
        <time>2012-08-15T13:10:57Z</time>
      </trkpt>
      <trkpt lat="48.68968" lon="7.19903">
        <ele>381.160278</ele>
        <time>2012-08-15T13:11:28Z</time>
      </trkpt>
      <trkpt lat="48.68859" lon="7.19822">
        <ele>375.699341</ele>
        <time>2012-08-15T13:11:43Z</time>
      </trkpt>
      <trkpt lat="48.6881" lon="7.19793">
        <ele>379.066528</ele>
        <time>2012-08-15T13:11:55Z</time>
      </trkpt>
      <trkpt lat="48.68766" lon="7.19756">
        <ele>372.441528</ele>
        <time>2012-08-15T13:12:09Z</time>
      </trkpt>
      <trkpt lat="48.68715" lon="7.1973">
        <ele>369.402466</ele>
        <time>2012-08-15T13:12:24Z</time>
      </trkpt>
      <trkpt lat="48.68694" lon="7.19733">
        <ele>360.183716</ele>
        <time>2012-08-15T13:12:34Z</time>
      </trkpt>
      <trkpt lat="48.68605" lon="7.19705">
        <ele>344.082153</ele>
        <time>2012-08-15T13:13:14Z</time>
      </trkpt>
      <trkpt lat="48.68583" lon="7.19707">
        <ele>336.652466</ele>
        <time>2012-08-15T13:13:19Z</time>
      </trkpt>
      <trkpt lat="48.68561" lon="7.19694">
        <ele>336.425903</ele>
        <time>2012-08-15T13:13:27Z</time>
      </trkpt>
      <trkpt lat="48.68463" lon="7.19696">
        <ele>329.441528</ele>
        <time>2012-08-15T13:13:57Z</time>
      </trkpt>
      <trkpt lat="48.68441" lon="7.1971">
        <ele>333.386841</ele>
        <time>2012-08-15T13:14:13Z</time>
      </trkpt>
      <trkpt lat="48.68401" lon="7.19711">
        <ele>343.347778</ele>
        <time>2012-08-15T13:14:35Z</time>
      </trkpt>
      <trkpt lat="48.68375" lon="7.19731">
        <ele>343.972778</ele>
        <time>2012-08-15T13:14:41Z</time>
      </trkpt>
      <trkpt lat="48.68294" lon="7.19692">
        <ele>344.785278</ele>
        <time>2012-08-15T13:14:49Z</time>
      </trkpt>
      <trkpt lat="48.68283" lon="7.19661">
        <ele>346.425903</ele>
        <time>2012-08-15T13:15:33Z</time>
      </trkpt>
      <trkpt lat="48.68259" lon="7.19647">
        <ele>346.613403</ele>
        <time>2012-08-15T13:16:24Z</time>
      </trkpt>
      <trkpt lat="48.68236" lon="7.19641">
        <ele>346.386841</ele>
        <time>2012-08-15T13:16:29Z</time>
      </trkpt>
      <trkpt lat="48.68223" lon="7.19703">
        <ele>330.644653</ele>
        <time>2012-08-15T13:18:18Z</time>
      </trkpt>
      <trkpt lat="48.68158" lon="7.19658">
        <ele>325.379028</ele>
        <time>2012-08-15T13:19:01Z</time>
      </trkpt>
      <trkpt lat="48.68144" lon="7.19629">
        <ele>327.183716</ele>
        <time>2012-08-15T13:19:14Z</time>
      </trkpt>
      <trkpt lat="48.68121" lon="7.19618">
        <ele>328.457153</ele>
        <time>2012-08-15T13:19:25Z</time>
      </trkpt>
      <trkpt lat="48.68097" lon="7.19617">
        <ele>321.808716</ele>
        <time>2012-08-15T13:19:34Z</time>
      </trkpt>
      <trkpt lat="48.68087" lon="7.19641">
        <ele>306.214966</ele>
        <time>2012-08-15T13:19:43Z</time>
      </trkpt>
      <trkpt lat="48.68064" lon="7.19645">
        <ele>300.144653</ele>
        <time>2012-08-15T13:19:56Z</time>
      </trkpt>
      <trkpt lat="48.68017" lon="7.1964">
        <ele>299.136841</ele>
        <time>2012-08-15T13:20:13Z</time>
      </trkpt>
      <trkpt lat="48.67995" lon="7.19629">
        <ele>300.832153</ele>
        <time>2012-08-15T13:20:22Z</time>
      </trkpt>
      <trkpt lat="48.6795" lon="7.19623">
        <ele>291.457153</ele>
        <time>2012-08-15T13:20:40Z</time>
      </trkpt>
      <trkpt lat="48.6795" lon="7.19596">
        <ele>274.894653</ele>
        <time>2012-08-15T13:22:40Z</time>
      </trkpt>
      <trkpt lat="48.67904" lon="7.19599">
        <ele>266.238403</ele>
        <time>2012-08-15T13:25:51Z</time>
      </trkpt>
      <trkpt lat="48.67881" lon="7.19592">
        <ele>265.175903</ele>
        <time>2012-08-15T13:26:11Z</time>
      </trkpt>
      <trkpt lat="48.67817" lon="7.19623">
        <ele>270.558716</ele>
        <time>2012-08-15T13:27:06Z</time>
      </trkpt>
      <trkpt lat="48.67798" lon="7.19644">
        <ele>268.949341</ele>
        <time>2012-08-15T13:27:24Z</time>
      </trkpt>
      <trkpt lat="48.67754" lon="7.19666">
        <ele>261.910278</ele>
        <time>2012-08-15T13:27:54Z</time>
      </trkpt>
      <trkpt lat="48.67661" lon="7.19684">
        <ele>256.207153</ele>
        <time>2012-08-15T13:28:59Z</time>
      </trkpt>
      <trkpt lat="48.67638" lon="7.19679">
        <ele>259.363403</ele>
        <time>2012-08-15T13:29:16Z</time>
      </trkpt>
      <trkpt lat="48.67595" lon="7.19654">
        <ele>261.355591</ele>
        <time>2012-08-15T13:29:41Z</time>
      </trkpt>
      <trkpt lat="48.67541" lon="7.19588">
        <ele>250.423889</ele>
        <time>2012-08-15T13:30:28Z</time>
      </trkpt>
      <trkpt lat="48.67459" lon="7.19522">
        <ele>239.771545</ele>
        <time>2012-08-15T13:31:32Z</time>
      </trkpt>
      <trkpt lat="48.67425" lon="7.19475">
        <ele>238.431702</ele>
        <time>2012-08-15T13:32:04Z</time>
      </trkpt>
      <trkpt lat="48.67401" lon="7.19469">
        <ele>240.50592</ele>
        <time>2012-08-15T13:32:22Z</time>
      </trkpt>
      <trkpt lat="48.67355" lon="7.19475">
        <ele>243.697327</ele>
        <time>2012-08-15T13:32:57Z</time>
      </trkpt>
      <trkpt lat="48.67319" lon="7.19517">
        <ele>246.677795</ele>
        <time>2012-08-15T13:33:33Z</time>
      </trkpt>
      <trkpt lat="48.67297" lon="7.1952">
        <ele>251.584045</ele>
        <time>2012-08-15T13:34:02Z</time>
      </trkpt>
      <trkpt lat="48.67303" lon="7.19539">
        <ele>273.402466</ele>
        <time>2012-08-15T13:38:54Z</time>
      </trkpt>
    </trkseg>
  </trk>
</gpx>